<?xml version="1.0" encoding="UTF-8" standalone="no" ?>
<gpx xmlns="http://www.topografix.com/GPX/1/1" xmlns:xsi="http://www.w3.org/2001/XMLSchema-instance" xsi:schemaLocation="http://www.topografix.com/GPX/1/1 http://www.topografix.com/GPX/1/1/gpx.xsd" version="1.1" creator="VisuGPX - https://www.visugpx.com">
  <metadata>
    <name>Boucle Diesen - Falck</name>
    <desc><![CDATA[File with points/tracks from Locus Map/3.29.2]]></desc>
  </metadata>
  <trk>
    <name><![CDATA[2018-02-20 13:44:02]]></name>
    <trkseg>
      <trkpt lat="49.17734" lon="6.67555">
        <ele>170.81</ele>
        <time>2018-02-20T12:44:19.000Z</time>
      </trkpt>
      <trkpt lat="49.17737" lon="6.67556">
        <ele>172.02</ele>
        <time>2018-02-20T12:44:29.000Z</time>
      </trkpt>
      <trkpt lat="49.17736" lon="6.67569">
        <ele>174.02</ele>
        <time>2018-02-20T12:44:39.000Z</time>
      </trkpt>
      <trkpt lat="49.17739" lon="6.67574">
        <ele>179</ele>
        <time>2018-02-20T12:44:49.000Z</time>
      </trkpt>
      <trkpt lat="49.17745" lon="6.67595">
        <ele>182.56</ele>
        <time>2018-02-20T12:44:59.000Z</time>
      </trkpt>
      <trkpt lat="49.17751" lon="6.67614">
        <ele>184.17</ele>
        <time>2018-02-20T12:45:09.000Z</time>
      </trkpt>
      <trkpt lat="49.17758" lon="6.67633">
        <ele>186</ele>
        <time>2018-02-20T12:45:19.000Z</time>
      </trkpt>
      <trkpt lat="49.1776" lon="6.67654">
        <ele>188.46</ele>
        <time>2018-02-20T12:45:29.000Z</time>
      </trkpt>
      <trkpt lat="49.17758" lon="6.67677">
        <ele>188.46</ele>
        <time>2018-02-20T12:45:39.000Z</time>
      </trkpt>
      <trkpt lat="49.17763" lon="6.677">
        <ele>189.65</ele>
        <time>2018-02-20T12:45:49.000Z</time>
      </trkpt>
      <trkpt lat="49.17768" lon="6.67721">
        <ele>190.59</ele>
        <time>2018-02-20T12:45:59.000Z</time>
      </trkpt>
      <trkpt lat="49.17756" lon="6.67739">
        <ele>191.14</ele>
        <time>2018-02-20T12:46:09.000Z</time>
      </trkpt>
      <trkpt lat="49.17751" lon="6.6776">
        <ele>192.08</ele>
        <time>2018-02-20T12:46:19.000Z</time>
      </trkpt>
      <trkpt lat="49.17749" lon="6.6778">
        <ele>192.79</ele>
        <time>2018-02-20T12:46:29.000Z</time>
      </trkpt>
      <trkpt lat="49.17761" lon="6.6778">
        <ele>191.98</ele>
        <time>2018-02-20T12:46:39.000Z</time>
      </trkpt>
      <trkpt lat="49.17768" lon="6.67778">
        <ele>194.6</ele>
        <time>2018-02-20T12:46:49.000Z</time>
      </trkpt>
      <trkpt lat="49.17782" lon="6.67793">
        <ele>195.91</ele>
        <time>2018-02-20T12:46:59.000Z</time>
      </trkpt>
      <trkpt lat="49.17791" lon="6.67809">
        <ele>196.31</ele>
        <time>2018-02-20T12:47:09.000Z</time>
      </trkpt>
      <trkpt lat="49.17797" lon="6.67826">
        <ele>197.45</ele>
        <time>2018-02-20T12:47:19.000Z</time>
      </trkpt>
      <trkpt lat="49.17804" lon="6.67835">
        <ele>196.65</ele>
        <time>2018-02-20T12:47:29.000Z</time>
      </trkpt>
      <trkpt lat="49.17804" lon="6.67837">
        <ele>195.54</ele>
        <time>2018-02-20T12:47:39.000Z</time>
      </trkpt>
      <trkpt lat="49.17802" lon="6.67833">
        <ele>195.25</ele>
        <time>2018-02-20T12:47:49.000Z</time>
      </trkpt>
      <trkpt lat="49.17837" lon="6.67834">
        <ele>194.46</ele>
        <time>2018-02-20T12:47:59.000Z</time>
      </trkpt>
      <trkpt lat="49.17852" lon="6.6784">
        <ele>194.57</ele>
        <time>2018-02-20T12:48:09.000Z</time>
      </trkpt>
      <trkpt lat="49.17861" lon="6.6785">
        <ele>193.31</ele>
        <time>2018-02-20T12:48:19.000Z</time>
      </trkpt>
      <trkpt lat="49.17873" lon="6.67861">
        <ele>189.71</ele>
        <time>2018-02-20T12:48:29.000Z</time>
      </trkpt>
      <trkpt lat="49.17879" lon="6.67876">
        <ele>188.11</ele>
        <time>2018-02-20T12:48:39.000Z</time>
      </trkpt>
      <trkpt lat="49.17891" lon="6.67889">
        <ele>186.12</ele>
        <time>2018-02-20T12:48:49.000Z</time>
      </trkpt>
      <trkpt lat="49.1789" lon="6.67915">
        <ele>183.48</ele>
        <time>2018-02-20T12:48:59.000Z</time>
      </trkpt>
      <trkpt lat="49.17901" lon="6.67935">
        <ele>183.11</ele>
        <time>2018-02-20T12:49:09.000Z</time>
      </trkpt>
      <trkpt lat="49.17909" lon="6.67943">
        <ele>183.57</ele>
        <time>2018-02-20T12:49:19.000Z</time>
      </trkpt>
      <trkpt lat="49.17916" lon="6.67945">
        <ele>184.95</ele>
        <time>2018-02-20T12:49:29.000Z</time>
      </trkpt>
      <trkpt lat="49.17921" lon="6.67948">
        <ele>185.41</ele>
        <time>2018-02-20T12:49:39.000Z</time>
      </trkpt>
      <trkpt lat="49.17925" lon="6.6795">
        <ele>189.24</ele>
        <time>2018-02-20T12:49:49.000Z</time>
      </trkpt>
      <trkpt lat="49.17939" lon="6.67951">
        <ele>193.76</ele>
        <time>2018-02-20T12:49:59.000Z</time>
      </trkpt>
      <trkpt lat="49.17952" lon="6.67955">
        <ele>195.64</ele>
        <time>2018-02-20T12:50:09.000Z</time>
      </trkpt>
      <trkpt lat="49.17979" lon="6.67961">
        <ele>191.47</ele>
        <time>2018-02-20T12:50:19.000Z</time>
      </trkpt>
      <trkpt lat="49.17999" lon="6.6797">
        <ele>188.48</ele>
        <time>2018-02-20T12:50:29.000Z</time>
      </trkpt>
      <trkpt lat="49.1802" lon="6.67974">
        <ele>189.4</ele>
        <time>2018-02-20T12:50:39.000Z</time>
      </trkpt>
      <trkpt lat="49.18027" lon="6.67978">
        <ele>190.2</ele>
        <time>2018-02-20T12:50:49.000Z</time>
      </trkpt>
      <trkpt lat="49.18036" lon="6.67988">
        <ele>187.35</ele>
        <time>2018-02-20T12:50:59.000Z</time>
      </trkpt>
      <trkpt lat="49.18043" lon="6.68002">
        <ele>187.41</ele>
        <time>2018-02-20T12:51:09.000Z</time>
      </trkpt>
      <trkpt lat="49.18058" lon="6.68009">
        <ele>182.07</ele>
        <time>2018-02-20T12:51:19.000Z</time>
      </trkpt>
      <trkpt lat="49.18066" lon="6.68029">
        <ele>182.59</ele>
        <time>2018-02-20T12:51:29.000Z</time>
      </trkpt>
      <trkpt lat="49.1807" lon="6.68052">
        <ele>186.06</ele>
        <time>2018-02-20T12:51:39.000Z</time>
      </trkpt>
      <trkpt lat="49.1808" lon="6.68067">
        <ele>189.16</ele>
        <time>2018-02-20T12:51:49.000Z</time>
      </trkpt>
      <trkpt lat="49.18088" lon="6.68081">
        <ele>186.47</ele>
        <time>2018-02-20T12:51:59.000Z</time>
      </trkpt>
      <trkpt lat="49.181" lon="6.68092">
        <ele>181.05</ele>
        <time>2018-02-20T12:52:09.000Z</time>
      </trkpt>
      <trkpt lat="49.18104" lon="6.68121">
        <ele>192.26</ele>
        <time>2018-02-20T12:52:19.000Z</time>
      </trkpt>
      <trkpt lat="49.1811" lon="6.68138">
        <ele>197.25</ele>
        <time>2018-02-20T12:52:29.000Z</time>
      </trkpt>
      <trkpt lat="49.18115" lon="6.68157">
        <ele>189.95</ele>
        <time>2018-02-20T12:52:39.000Z</time>
      </trkpt>
      <trkpt lat="49.18124" lon="6.68164">
        <ele>176.39</ele>
        <time>2018-02-20T12:52:49.000Z</time>
      </trkpt>
      <trkpt lat="49.18134" lon="6.68175">
        <ele>161.94</ele>
        <time>2018-02-20T12:52:59.000Z</time>
      </trkpt>
      <trkpt lat="49.18144" lon="6.68179">
        <ele>149.87</ele>
        <time>2018-02-20T12:53:09.000Z</time>
      </trkpt>
      <trkpt lat="49.18153" lon="6.68193">
        <ele>155.57</ele>
        <time>2018-02-20T12:53:19.000Z</time>
      </trkpt>
      <trkpt lat="49.18154" lon="6.68197">
        <ele>159.21</ele>
        <time>2018-02-20T12:53:29.000Z</time>
      </trkpt>
      <trkpt lat="49.18163" lon="6.68208">
        <ele>159.48</ele>
        <time>2018-02-20T12:53:39.000Z</time>
      </trkpt>
      <trkpt lat="49.18171" lon="6.68225">
        <ele>175.23</ele>
        <time>2018-02-20T12:53:49.000Z</time>
      </trkpt>
      <trkpt lat="49.18173" lon="6.68231">
        <ele>180.81</ele>
        <time>2018-02-20T12:53:59.000Z</time>
      </trkpt>
      <trkpt lat="49.18191" lon="6.68237">
        <ele>172.7</ele>
        <time>2018-02-20T12:54:09.000Z</time>
      </trkpt>
      <trkpt lat="49.18204" lon="6.68241">
        <ele>167.42</ele>
        <time>2018-02-20T12:54:19.000Z</time>
      </trkpt>
      <trkpt lat="49.18214" lon="6.68253">
        <ele>169.68</ele>
        <time>2018-02-20T12:54:29.000Z</time>
      </trkpt>
      <trkpt lat="49.1822" lon="6.68263">
        <ele>185.85</ele>
        <time>2018-02-20T12:54:39.000Z</time>
      </trkpt>
      <trkpt lat="49.18236" lon="6.68269">
        <ele>187.7</ele>
        <time>2018-02-20T12:54:49.000Z</time>
      </trkpt>
      <trkpt lat="49.1825" lon="6.68278">
        <ele>193.41</ele>
        <time>2018-02-20T12:54:59.000Z</time>
      </trkpt>
      <trkpt lat="49.18268" lon="6.68285">
        <ele>188.2</ele>
        <time>2018-02-20T12:55:09.000Z</time>
      </trkpt>
      <trkpt lat="49.18272" lon="6.68301">
        <ele>192.55</ele>
        <time>2018-02-20T12:55:19.000Z</time>
      </trkpt>
      <trkpt lat="49.18288" lon="6.68312">
        <ele>192.33</ele>
        <time>2018-02-20T12:55:29.000Z</time>
      </trkpt>
      <trkpt lat="49.183" lon="6.6832">
        <ele>187.19</ele>
        <time>2018-02-20T12:55:39.000Z</time>
      </trkpt>
      <trkpt lat="49.18314" lon="6.68327">
        <ele>183.77</ele>
        <time>2018-02-20T12:55:49.000Z</time>
      </trkpt>
      <trkpt lat="49.18323" lon="6.68343">
        <ele>188.49</ele>
        <time>2018-02-20T12:55:59.000Z</time>
      </trkpt>
      <trkpt lat="49.18335" lon="6.68356">
        <ele>190.54</ele>
        <time>2018-02-20T12:56:09.000Z</time>
      </trkpt>
      <trkpt lat="49.18342" lon="6.68365">
        <ele>199.63</ele>
        <time>2018-02-20T12:56:19.000Z</time>
      </trkpt>
      <trkpt lat="49.18353" lon="6.68366">
        <ele>202.67</ele>
        <time>2018-02-20T12:56:29.000Z</time>
      </trkpt>
      <trkpt lat="49.18369" lon="6.68363">
        <ele>205.79</ele>
        <time>2018-02-20T12:56:39.000Z</time>
      </trkpt>
      <trkpt lat="49.18376" lon="6.68362">
        <ele>208.68</ele>
        <time>2018-02-20T12:56:49.000Z</time>
      </trkpt>
      <trkpt lat="49.18388" lon="6.68361">
        <ele>208.5</ele>
        <time>2018-02-20T12:56:59.000Z</time>
      </trkpt>
      <trkpt lat="49.18406" lon="6.68347">
        <ele>201.26</ele>
        <time>2018-02-20T12:57:09.000Z</time>
      </trkpt>
      <trkpt lat="49.18414" lon="6.68337">
        <ele>199.93</ele>
        <time>2018-02-20T12:57:19.000Z</time>
      </trkpt>
      <trkpt lat="49.18415" lon="6.68328">
        <ele>198.97</ele>
        <time>2018-02-20T12:57:29.000Z</time>
      </trkpt>
      <trkpt lat="49.18431" lon="6.68305">
        <ele>193.09</ele>
        <time>2018-02-20T12:57:39.000Z</time>
      </trkpt>
      <trkpt lat="49.18436" lon="6.68292">
        <ele>187.34</ele>
        <time>2018-02-20T12:57:49.000Z</time>
      </trkpt>
      <trkpt lat="49.18446" lon="6.68276">
        <ele>189.51</ele>
        <time>2018-02-20T12:57:59.000Z</time>
      </trkpt>
      <trkpt lat="49.18463" lon="6.68261">
        <ele>185.44</ele>
        <time>2018-02-20T12:58:09.000Z</time>
      </trkpt>
      <trkpt lat="49.18478" lon="6.68253">
        <ele>175.49</ele>
        <time>2018-02-20T12:58:19.000Z</time>
      </trkpt>
      <trkpt lat="49.18489" lon="6.68238">
        <ele>177.87</ele>
        <time>2018-02-20T12:58:29.000Z</time>
      </trkpt>
      <trkpt lat="49.18499" lon="6.68237">
        <ele>175.86</ele>
        <time>2018-02-20T12:58:39.000Z</time>
      </trkpt>
      <trkpt lat="49.18512" lon="6.68235">
        <ele>185.81</ele>
        <time>2018-02-20T12:58:49.000Z</time>
      </trkpt>
      <trkpt lat="49.18528" lon="6.68231">
        <ele>191.96</ele>
        <time>2018-02-20T12:58:59.000Z</time>
      </trkpt>
      <trkpt lat="49.1854" lon="6.68225">
        <ele>193.14</ele>
        <time>2018-02-20T12:59:09.000Z</time>
      </trkpt>
      <trkpt lat="49.18548" lon="6.68218">
        <ele>190.17</ele>
        <time>2018-02-20T12:59:19.000Z</time>
      </trkpt>
      <trkpt lat="49.18559" lon="6.68216">
        <ele>188.38</ele>
        <time>2018-02-20T12:59:29.000Z</time>
      </trkpt>
      <trkpt lat="49.18572" lon="6.68213">
        <ele>188.87</ele>
        <time>2018-02-20T12:59:39.000Z</time>
      </trkpt>
      <trkpt lat="49.18593" lon="6.68206">
        <ele>190.16</ele>
        <time>2018-02-20T12:59:49.000Z</time>
      </trkpt>
      <trkpt lat="49.18608" lon="6.68195">
        <ele>183.37</ele>
        <time>2018-02-20T12:59:59.000Z</time>
      </trkpt>
      <trkpt lat="49.18618" lon="6.68193">
        <ele>180.12</ele>
        <time>2018-02-20T13:00:09.000Z</time>
      </trkpt>
      <trkpt lat="49.18629" lon="6.68181">
        <ele>179.06</ele>
        <time>2018-02-20T13:00:19.000Z</time>
      </trkpt>
      <trkpt lat="49.18643" lon="6.6817">
        <ele>173.71</ele>
        <time>2018-02-20T13:00:29.000Z</time>
      </trkpt>
      <trkpt lat="49.18653" lon="6.68159">
        <ele>173.41</ele>
        <time>2018-02-20T13:00:39.000Z</time>
      </trkpt>
      <trkpt lat="49.18665" lon="6.68152">
        <ele>170.77</ele>
        <time>2018-02-20T13:00:49.000Z</time>
      </trkpt>
      <trkpt lat="49.18682" lon="6.68145">
        <ele>176.59</ele>
        <time>2018-02-20T13:00:59.000Z</time>
      </trkpt>
      <trkpt lat="49.18694" lon="6.68141">
        <ele>179.58</ele>
        <time>2018-02-20T13:01:09.000Z</time>
      </trkpt>
      <trkpt lat="49.18704" lon="6.68135">
        <ele>181.13</ele>
        <time>2018-02-20T13:01:19.000Z</time>
      </trkpt>
      <trkpt lat="49.18716" lon="6.68126">
        <ele>184.87</ele>
        <time>2018-02-20T13:01:29.000Z</time>
      </trkpt>
      <trkpt lat="49.18727" lon="6.68119">
        <ele>188.2</ele>
        <time>2018-02-20T13:01:39.000Z</time>
      </trkpt>
      <trkpt lat="49.18742" lon="6.68104">
        <ele>186.94</ele>
        <time>2018-02-20T13:01:49.000Z</time>
      </trkpt>
      <trkpt lat="49.18753" lon="6.6809">
        <ele>179.96</ele>
        <time>2018-02-20T13:01:59.000Z</time>
      </trkpt>
      <trkpt lat="49.18763" lon="6.68079">
        <ele>182.53</ele>
        <time>2018-02-20T13:02:09.000Z</time>
      </trkpt>
      <trkpt lat="49.18767" lon="6.68074">
        <ele>184.35</ele>
        <time>2018-02-20T13:02:19.000Z</time>
      </trkpt>
      <trkpt lat="49.18778" lon="6.68061">
        <ele>184.29</ele>
        <time>2018-02-20T13:02:29.000Z</time>
      </trkpt>
      <trkpt lat="49.18794" lon="6.68046">
        <ele>185.23</ele>
        <time>2018-02-20T13:02:39.000Z</time>
      </trkpt>
      <trkpt lat="49.18803" lon="6.68028">
        <ele>190.29</ele>
        <time>2018-02-20T13:02:49.000Z</time>
      </trkpt>
      <trkpt lat="49.18813" lon="6.68017">
        <ele>191.84</ele>
        <time>2018-02-20T13:02:59.000Z</time>
      </trkpt>
      <trkpt lat="49.18825" lon="6.68006">
        <ele>190.44</ele>
        <time>2018-02-20T13:03:09.000Z</time>
      </trkpt>
      <trkpt lat="49.18838" lon="6.67996">
        <ele>189.6</ele>
        <time>2018-02-20T13:03:19.000Z</time>
      </trkpt>
      <trkpt lat="49.18863" lon="6.68002">
        <ele>183.2</ele>
        <time>2018-02-20T13:03:29.000Z</time>
      </trkpt>
      <trkpt lat="49.18875" lon="6.67995">
        <ele>180.21</ele>
        <time>2018-02-20T13:03:39.000Z</time>
      </trkpt>
      <trkpt lat="49.1889" lon="6.67991">
        <ele>177.83</ele>
        <time>2018-02-20T13:03:49.000Z</time>
      </trkpt>
      <trkpt lat="49.18901" lon="6.67983">
        <ele>174.85</ele>
        <time>2018-02-20T13:03:59.000Z</time>
      </trkpt>
      <trkpt lat="49.18914" lon="6.6797">
        <ele>173</ele>
        <time>2018-02-20T13:04:09.000Z</time>
      </trkpt>
      <trkpt lat="49.18929" lon="6.6796">
        <ele>174.1</ele>
        <time>2018-02-20T13:04:19.000Z</time>
      </trkpt>
      <trkpt lat="49.18941" lon="6.67947">
        <ele>174.14</ele>
        <time>2018-02-20T13:04:29.000Z</time>
      </trkpt>
      <trkpt lat="49.18951" lon="6.67942">
        <ele>172.96</ele>
        <time>2018-02-20T13:04:39.000Z</time>
      </trkpt>
      <trkpt lat="49.18962" lon="6.67937">
        <ele>169.09</ele>
        <time>2018-02-20T13:04:49.000Z</time>
      </trkpt>
      <trkpt lat="49.18975" lon="6.67915">
        <ele>170.92</ele>
        <time>2018-02-20T13:04:59.000Z</time>
      </trkpt>
      <trkpt lat="49.18991" lon="6.67913">
        <ele>165.83</ele>
        <time>2018-02-20T13:05:09.000Z</time>
      </trkpt>
      <trkpt lat="49.19001" lon="6.67902">
        <ele>165.34</ele>
        <time>2018-02-20T13:05:19.000Z</time>
      </trkpt>
      <trkpt lat="49.19014" lon="6.67893">
        <ele>164.04</ele>
        <time>2018-02-20T13:05:29.000Z</time>
      </trkpt>
      <trkpt lat="49.19025" lon="6.67889">
        <ele>161.92</ele>
        <time>2018-02-20T13:05:39.000Z</time>
      </trkpt>
      <trkpt lat="49.19037" lon="6.67889">
        <ele>164.93</ele>
        <time>2018-02-20T13:05:49.000Z</time>
      </trkpt>
      <trkpt lat="49.19054" lon="6.67892">
        <ele>172.38</ele>
        <time>2018-02-20T13:05:59.000Z</time>
      </trkpt>
      <trkpt lat="49.19073" lon="6.67897">
        <ele>181.46</ele>
        <time>2018-02-20T13:06:09.000Z</time>
      </trkpt>
      <trkpt lat="49.19086" lon="6.67902">
        <ele>187.33</ele>
        <time>2018-02-20T13:06:19.000Z</time>
      </trkpt>
      <trkpt lat="49.19099" lon="6.67911">
        <ele>186.81</ele>
        <time>2018-02-20T13:06:29.000Z</time>
      </trkpt>
      <trkpt lat="49.19113" lon="6.67923">
        <ele>187.57</ele>
        <time>2018-02-20T13:06:39.000Z</time>
      </trkpt>
      <trkpt lat="49.19128" lon="6.67931">
        <ele>186.7</ele>
        <time>2018-02-20T13:06:49.000Z</time>
      </trkpt>
      <trkpt lat="49.19147" lon="6.67929">
        <ele>196.73</ele>
        <time>2018-02-20T13:06:59.000Z</time>
      </trkpt>
      <trkpt lat="49.19161" lon="6.67913">
        <ele>199.06</ele>
        <time>2018-02-20T13:07:09.000Z</time>
      </trkpt>
      <trkpt lat="49.19172" lon="6.679">
        <ele>198.76</ele>
        <time>2018-02-20T13:07:19.000Z</time>
      </trkpt>
      <trkpt lat="49.19179" lon="6.67893">
        <ele>193.2</ele>
        <time>2018-02-20T13:07:29.000Z</time>
      </trkpt>
      <trkpt lat="49.19185" lon="6.67886">
        <ele>193.08</ele>
        <time>2018-02-20T13:07:39.000Z</time>
      </trkpt>
      <trkpt lat="49.19191" lon="6.67899">
        <ele>188.14</ele>
        <time>2018-02-20T13:07:49.000Z</time>
      </trkpt>
      <trkpt lat="49.192" lon="6.67918">
        <ele>186.38</ele>
        <time>2018-02-20T13:07:59.000Z</time>
      </trkpt>
      <trkpt lat="49.1921" lon="6.67927">
        <ele>186.4</ele>
        <time>2018-02-20T13:08:09.000Z</time>
      </trkpt>
      <trkpt lat="49.19223" lon="6.67923">
        <ele>183.62</ele>
        <time>2018-02-20T13:08:19.000Z</time>
      </trkpt>
      <trkpt lat="49.19227" lon="6.67916">
        <ele>176.03</ele>
        <time>2018-02-20T13:08:29.000Z</time>
      </trkpt>
      <trkpt lat="49.1924" lon="6.67912">
        <ele>166.59</ele>
        <time>2018-02-20T13:08:39.000Z</time>
      </trkpt>
      <trkpt lat="49.19249" lon="6.67903">
        <ele>161.22</ele>
        <time>2018-02-20T13:08:49.000Z</time>
      </trkpt>
      <trkpt lat="49.19259" lon="6.67899">
        <ele>150.78</ele>
        <time>2018-02-20T13:08:59.000Z</time>
      </trkpt>
      <trkpt lat="49.19266" lon="6.67886">
        <ele>146.09</ele>
        <time>2018-02-20T13:09:09.000Z</time>
      </trkpt>
      <trkpt lat="49.19271" lon="6.67854">
        <ele>147.57</ele>
        <time>2018-02-20T13:09:19.000Z</time>
      </trkpt>
      <trkpt lat="49.19272" lon="6.67826">
        <ele>154.34</ele>
        <time>2018-02-20T13:09:29.000Z</time>
      </trkpt>
      <trkpt lat="49.19282" lon="6.67811">
        <ele>149.78</ele>
        <time>2018-02-20T13:09:39.000Z</time>
      </trkpt>
      <trkpt lat="49.19291" lon="6.67799">
        <ele>152.32</ele>
        <time>2018-02-20T13:09:49.000Z</time>
      </trkpt>
      <trkpt lat="49.19298" lon="6.67773">
        <ele>168.05</ele>
        <time>2018-02-20T13:09:59.000Z</time>
      </trkpt>
      <trkpt lat="49.19305" lon="6.67754">
        <ele>175.62</ele>
        <time>2018-02-20T13:10:09.000Z</time>
      </trkpt>
      <trkpt lat="49.19309" lon="6.67737">
        <ele>176.78</ele>
        <time>2018-02-20T13:10:19.000Z</time>
      </trkpt>
      <trkpt lat="49.19314" lon="6.67726">
        <ele>175.96</ele>
        <time>2018-02-20T13:10:29.000Z</time>
      </trkpt>
      <trkpt lat="49.19314" lon="6.67724">
        <ele>174.29</ele>
        <time>2018-02-20T13:10:39.000Z</time>
      </trkpt>
      <trkpt lat="49.19311" lon="6.67725">
        <ele>182.4</ele>
        <time>2018-02-20T13:10:49.000Z</time>
      </trkpt>
      <trkpt lat="49.19315" lon="6.67732">
        <ele>179.56</ele>
        <time>2018-02-20T13:10:59.000Z</time>
      </trkpt>
      <trkpt lat="49.19339" lon="6.67733">
        <ele>167.59</ele>
        <time>2018-02-20T13:11:09.000Z</time>
      </trkpt>
      <trkpt lat="49.19354" lon="6.67734">
        <ele>160.2</ele>
        <time>2018-02-20T13:11:19.000Z</time>
      </trkpt>
      <trkpt lat="49.1937" lon="6.67734">
        <ele>164.55</ele>
        <time>2018-02-20T13:11:29.000Z</time>
      </trkpt>
      <trkpt lat="49.19376" lon="6.67728">
        <ele>161.65</ele>
        <time>2018-02-20T13:11:39.000Z</time>
      </trkpt>
      <trkpt lat="49.1939" lon="6.67713">
        <ele>167.62</ele>
        <time>2018-02-20T13:11:49.000Z</time>
      </trkpt>
      <trkpt lat="49.19402" lon="6.67701">
        <ele>172.09</ele>
        <time>2018-02-20T13:11:59.000Z</time>
      </trkpt>
      <trkpt lat="49.19409" lon="6.67685">
        <ele>177.62</ele>
        <time>2018-02-20T13:12:09.000Z</time>
      </trkpt>
      <trkpt lat="49.19412" lon="6.67666">
        <ele>182.94</ele>
        <time>2018-02-20T13:12:19.000Z</time>
      </trkpt>
      <trkpt lat="49.19417" lon="6.67652">
        <ele>189.01</ele>
        <time>2018-02-20T13:12:29.000Z</time>
      </trkpt>
      <trkpt lat="49.19418" lon="6.67632">
        <ele>192.38</ele>
        <time>2018-02-20T13:12:39.000Z</time>
      </trkpt>
      <trkpt lat="49.19423" lon="6.67611">
        <ele>196.72</ele>
        <time>2018-02-20T13:12:49.000Z</time>
      </trkpt>
      <trkpt lat="49.19432" lon="6.67595">
        <ele>197.89</ele>
        <time>2018-02-20T13:12:59.000Z</time>
      </trkpt>
      <trkpt lat="49.19437" lon="6.67578">
        <ele>178.94</ele>
        <time>2018-02-20T13:13:09.000Z</time>
      </trkpt>
      <trkpt lat="49.19441" lon="6.67564">
        <ele>168.61</ele>
        <time>2018-02-20T13:13:19.000Z</time>
      </trkpt>
      <trkpt lat="49.19447" lon="6.67545">
        <ele>163.89</ele>
        <time>2018-02-20T13:13:29.000Z</time>
      </trkpt>
      <trkpt lat="49.19456" lon="6.67527">
        <ele>160.44</ele>
        <time>2018-02-20T13:13:39.000Z</time>
      </trkpt>
      <trkpt lat="49.19466" lon="6.67512">
        <ele>156.43</ele>
        <time>2018-02-20T13:13:49.000Z</time>
      </trkpt>
      <trkpt lat="49.19478" lon="6.67498">
        <ele>150.9</ele>
        <time>2018-02-20T13:13:59.000Z</time>
      </trkpt>
      <trkpt lat="49.19487" lon="6.67473">
        <ele>150.62</ele>
        <time>2018-02-20T13:14:09.000Z</time>
      </trkpt>
      <trkpt lat="49.19497" lon="6.67455">
        <ele>149.09</ele>
        <time>2018-02-20T13:14:19.000Z</time>
      </trkpt>
      <trkpt lat="49.19506" lon="6.67441">
        <ele>144.04</ele>
        <time>2018-02-20T13:14:29.000Z</time>
      </trkpt>
      <trkpt lat="49.19506" lon="6.67411">
        <ele>157.2</ele>
        <time>2018-02-20T13:14:39.000Z</time>
      </trkpt>
      <trkpt lat="49.19511" lon="6.67393">
        <ele>157.41</ele>
        <time>2018-02-20T13:14:49.000Z</time>
      </trkpt>
      <trkpt lat="49.19516" lon="6.67378">
        <ele>157.65</ele>
        <time>2018-02-20T13:14:59.000Z</time>
      </trkpt>
      <trkpt lat="49.19521" lon="6.67362">
        <ele>150.44</ele>
        <time>2018-02-20T13:15:09.000Z</time>
      </trkpt>
      <trkpt lat="49.19526" lon="6.67341">
        <ele>145.43</ele>
        <time>2018-02-20T13:15:19.000Z</time>
      </trkpt>
      <trkpt lat="49.1953" lon="6.67323">
        <ele>144.63</ele>
        <time>2018-02-20T13:15:29.000Z</time>
      </trkpt>
      <trkpt lat="49.19534" lon="6.67297">
        <ele>144.93</ele>
        <time>2018-02-20T13:15:39.000Z</time>
      </trkpt>
      <trkpt lat="49.19542" lon="6.67278">
        <ele>146.54</ele>
        <time>2018-02-20T13:15:49.000Z</time>
      </trkpt>
      <trkpt lat="49.19548" lon="6.67261">
        <ele>149.6</ele>
        <time>2018-02-20T13:15:59.000Z</time>
      </trkpt>
      <trkpt lat="49.19553" lon="6.67245">
        <ele>153.94</ele>
        <time>2018-02-20T13:16:09.000Z</time>
      </trkpt>
      <trkpt lat="49.19559" lon="6.67231">
        <ele>158.88</ele>
        <time>2018-02-20T13:16:19.000Z</time>
      </trkpt>
      <trkpt lat="49.19567" lon="6.67213">
        <ele>160.88</ele>
        <time>2018-02-20T13:16:29.000Z</time>
      </trkpt>
      <trkpt lat="49.19576" lon="6.67195">
        <ele>163.92</ele>
        <time>2018-02-20T13:16:39.000Z</time>
      </trkpt>
      <trkpt lat="49.19585" lon="6.6718">
        <ele>167.33</ele>
        <time>2018-02-20T13:16:49.000Z</time>
      </trkpt>
      <trkpt lat="49.19597" lon="6.67172">
        <ele>162.41</ele>
        <time>2018-02-20T13:16:59.000Z</time>
      </trkpt>
      <trkpt lat="49.19609" lon="6.6716">
        <ele>160.06</ele>
        <time>2018-02-20T13:17:09.000Z</time>
      </trkpt>
      <trkpt lat="49.19619" lon="6.67139">
        <ele>163.51</ele>
        <time>2018-02-20T13:17:19.000Z</time>
      </trkpt>
      <trkpt lat="49.1963" lon="6.67119">
        <ele>164.27</ele>
        <time>2018-02-20T13:17:29.000Z</time>
      </trkpt>
      <trkpt lat="49.1965" lon="6.67106">
        <ele>155.21</ele>
        <time>2018-02-20T13:17:39.000Z</time>
      </trkpt>
      <trkpt lat="49.19663" lon="6.67093">
        <ele>153.14</ele>
        <time>2018-02-20T13:17:49.000Z</time>
      </trkpt>
      <trkpt lat="49.19676" lon="6.67058">
        <ele>182.94</ele>
        <time>2018-02-20T13:17:59.000Z</time>
      </trkpt>
      <trkpt lat="49.19687" lon="6.67053">
        <ele>182.8</ele>
        <time>2018-02-20T13:18:09.000Z</time>
      </trkpt>
      <trkpt lat="49.19697" lon="6.67048">
        <ele>179.54</ele>
        <time>2018-02-20T13:18:19.000Z</time>
      </trkpt>
      <trkpt lat="49.1971" lon="6.67043">
        <ele>180.15</ele>
        <time>2018-02-20T13:18:29.000Z</time>
      </trkpt>
      <trkpt lat="49.1972" lon="6.67036">
        <ele>178.1</ele>
        <time>2018-02-20T13:18:39.000Z</time>
      </trkpt>
      <trkpt lat="49.19732" lon="6.67024">
        <ele>179.08</ele>
        <time>2018-02-20T13:18:49.000Z</time>
      </trkpt>
      <trkpt lat="49.19746" lon="6.67014">
        <ele>182.18</ele>
        <time>2018-02-20T13:18:59.000Z</time>
      </trkpt>
      <trkpt lat="49.19756" lon="6.67007">
        <ele>178.94</ele>
        <time>2018-02-20T13:19:09.000Z</time>
      </trkpt>
      <trkpt lat="49.19763" lon="6.67003">
        <ele>172.56</ele>
        <time>2018-02-20T13:19:19.000Z</time>
      </trkpt>
      <trkpt lat="49.19778" lon="6.66998">
        <ele>174.27</ele>
        <time>2018-02-20T13:19:29.000Z</time>
      </trkpt>
      <trkpt lat="49.19793" lon="6.66992">
        <ele>173.37</ele>
        <time>2018-02-20T13:19:39.000Z</time>
      </trkpt>
      <trkpt lat="49.19804" lon="6.66982">
        <ele>171.35</ele>
        <time>2018-02-20T13:19:49.000Z</time>
      </trkpt>
      <trkpt lat="49.19817" lon="6.66978">
        <ele>171.24</ele>
        <time>2018-02-20T13:19:59.000Z</time>
      </trkpt>
      <trkpt lat="49.19826" lon="6.66969">
        <ele>169.1</ele>
        <time>2018-02-20T13:20:09.000Z</time>
      </trkpt>
      <trkpt lat="49.19837" lon="6.6696">
        <ele>166.8</ele>
        <time>2018-02-20T13:20:19.000Z</time>
      </trkpt>
      <trkpt lat="49.19849" lon="6.6695">
        <ele>164.03</ele>
        <time>2018-02-20T13:20:29.000Z</time>
      </trkpt>
      <trkpt lat="49.19858" lon="6.66942">
        <ele>159.68</ele>
        <time>2018-02-20T13:20:39.000Z</time>
      </trkpt>
      <trkpt lat="49.19866" lon="6.66932">
        <ele>153.2</ele>
        <time>2018-02-20T13:20:49.000Z</time>
      </trkpt>
      <trkpt lat="49.19882" lon="6.66926">
        <ele>154.49</ele>
        <time>2018-02-20T13:20:59.000Z</time>
      </trkpt>
      <trkpt lat="49.199" lon="6.66923">
        <ele>160.75</ele>
        <time>2018-02-20T13:21:09.000Z</time>
      </trkpt>
      <trkpt lat="49.19916" lon="6.66916">
        <ele>161.95</ele>
        <time>2018-02-20T13:21:19.000Z</time>
      </trkpt>
      <trkpt lat="49.19931" lon="6.66905">
        <ele>169.23</ele>
        <time>2018-02-20T13:21:29.000Z</time>
      </trkpt>
      <trkpt lat="49.19942" lon="6.66895">
        <ele>169.69</ele>
        <time>2018-02-20T13:21:39.000Z</time>
      </trkpt>
      <trkpt lat="49.19955" lon="6.66891">
        <ele>170.94</ele>
        <time>2018-02-20T13:21:49.000Z</time>
      </trkpt>
      <trkpt lat="49.19969" lon="6.66883">
        <ele>169.49</ele>
        <time>2018-02-20T13:21:59.000Z</time>
      </trkpt>
      <trkpt lat="49.19984" lon="6.66874">
        <ele>169.54</ele>
        <time>2018-02-20T13:22:09.000Z</time>
      </trkpt>
      <trkpt lat="49.19999" lon="6.66864">
        <ele>166.82</ele>
        <time>2018-02-20T13:22:19.000Z</time>
      </trkpt>
      <trkpt lat="49.20006" lon="6.66853">
        <ele>163.12</ele>
        <time>2018-02-20T13:22:29.000Z</time>
      </trkpt>
      <trkpt lat="49.2002" lon="6.66851">
        <ele>158.11</ele>
        <time>2018-02-20T13:22:39.000Z</time>
      </trkpt>
      <trkpt lat="49.20036" lon="6.66841">
        <ele>158.23</ele>
        <time>2018-02-20T13:22:49.000Z</time>
      </trkpt>
      <trkpt lat="49.2005" lon="6.66833">
        <ele>156.85</ele>
        <time>2018-02-20T13:22:59.000Z</time>
      </trkpt>
      <trkpt lat="49.20061" lon="6.66825">
        <ele>157.79</ele>
        <time>2018-02-20T13:23:09.000Z</time>
      </trkpt>
      <trkpt lat="49.2007" lon="6.66817">
        <ele>153.91</ele>
        <time>2018-02-20T13:23:19.000Z</time>
      </trkpt>
      <trkpt lat="49.20082" lon="6.66811">
        <ele>151.24</ele>
        <time>2018-02-20T13:23:29.000Z</time>
      </trkpt>
      <trkpt lat="49.20094" lon="6.66811">
        <ele>148.55</ele>
        <time>2018-02-20T13:23:39.000Z</time>
      </trkpt>
      <trkpt lat="49.2011" lon="6.66815">
        <ele>149.32</ele>
        <time>2018-02-20T13:23:49.000Z</time>
      </trkpt>
      <trkpt lat="49.20118" lon="6.6681">
        <ele>152.13</ele>
        <time>2018-02-20T13:23:59.000Z</time>
      </trkpt>
      <trkpt lat="49.20126" lon="6.66814">
        <ele>149.83</ele>
        <time>2018-02-20T13:24:09.000Z</time>
      </trkpt>
      <trkpt lat="49.20135" lon="6.66822">
        <ele>148.42</ele>
        <time>2018-02-20T13:24:19.000Z</time>
      </trkpt>
      <trkpt lat="49.20149" lon="6.66829">
        <ele>150.24</ele>
        <time>2018-02-20T13:24:29.000Z</time>
      </trkpt>
      <trkpt lat="49.20169" lon="6.66828">
        <ele>160.29</ele>
        <time>2018-02-20T13:24:39.000Z</time>
      </trkpt>
      <trkpt lat="49.20173" lon="6.6682">
        <ele>157.31</ele>
        <time>2018-02-20T13:24:49.000Z</time>
      </trkpt>
      <trkpt lat="49.20176" lon="6.66799">
        <ele>153.4</ele>
        <time>2018-02-20T13:24:59.000Z</time>
      </trkpt>
      <trkpt lat="49.20179" lon="6.66784">
        <ele>153.97</ele>
        <time>2018-02-20T13:25:09.000Z</time>
      </trkpt>
      <trkpt lat="49.20179" lon="6.66762">
        <ele>155.22</ele>
        <time>2018-02-20T13:25:19.000Z</time>
      </trkpt>
      <trkpt lat="49.20182" lon="6.66744">
        <ele>154.26</ele>
        <time>2018-02-20T13:25:29.000Z</time>
      </trkpt>
      <trkpt lat="49.20192" lon="6.66729">
        <ele>153.73</ele>
        <time>2018-02-20T13:25:39.000Z</time>
      </trkpt>
      <trkpt lat="49.20205" lon="6.6672">
        <ele>151.67</ele>
        <time>2018-02-20T13:25:49.000Z</time>
      </trkpt>
      <trkpt lat="49.20217" lon="6.66714">
        <ele>149.89</ele>
        <time>2018-02-20T13:25:59.000Z</time>
      </trkpt>
      <trkpt lat="49.20228" lon="6.6671">
        <ele>147.05</ele>
        <time>2018-02-20T13:26:09.000Z</time>
      </trkpt>
      <trkpt lat="49.20238" lon="6.66694">
        <ele>144.26</ele>
        <time>2018-02-20T13:26:19.000Z</time>
      </trkpt>
      <trkpt lat="49.20248" lon="6.66684">
        <ele>139.04</ele>
        <time>2018-02-20T13:26:29.000Z</time>
      </trkpt>
      <trkpt lat="49.20261" lon="6.66673">
        <ele>137.67</ele>
        <time>2018-02-20T13:26:39.000Z</time>
      </trkpt>
      <trkpt lat="49.20271" lon="6.66665">
        <ele>135.58</ele>
        <time>2018-02-20T13:26:49.000Z</time>
      </trkpt>
      <trkpt lat="49.20288" lon="6.66657">
        <ele>140.14</ele>
        <time>2018-02-20T13:26:59.000Z</time>
      </trkpt>
      <trkpt lat="49.20302" lon="6.66654">
        <ele>140.86</ele>
        <time>2018-02-20T13:27:09.000Z</time>
      </trkpt>
      <trkpt lat="49.20318" lon="6.66649">
        <ele>143.43</ele>
        <time>2018-02-20T13:27:19.000Z</time>
      </trkpt>
      <trkpt lat="49.20332" lon="6.66642">
        <ele>146.6</ele>
        <time>2018-02-20T13:27:29.000Z</time>
      </trkpt>
      <trkpt lat="49.20342" lon="6.66636">
        <ele>142.88</ele>
        <time>2018-02-20T13:27:39.000Z</time>
      </trkpt>
      <trkpt lat="49.20353" lon="6.66632">
        <ele>141.22</ele>
        <time>2018-02-20T13:27:49.000Z</time>
      </trkpt>
      <trkpt lat="49.2037" lon="6.66617">
        <ele>149.55</ele>
        <time>2018-02-20T13:27:59.000Z</time>
      </trkpt>
      <trkpt lat="49.20383" lon="6.66605">
        <ele>154.34</ele>
        <time>2018-02-20T13:28:09.000Z</time>
      </trkpt>
      <trkpt lat="49.20397" lon="6.66604">
        <ele>156.48</ele>
        <time>2018-02-20T13:28:19.000Z</time>
      </trkpt>
      <trkpt lat="49.20414" lon="6.66599">
        <ele>162.31</ele>
        <time>2018-02-20T13:28:29.000Z</time>
      </trkpt>
      <trkpt lat="49.20426" lon="6.66593">
        <ele>160.43</ele>
        <time>2018-02-20T13:28:39.000Z</time>
      </trkpt>
      <trkpt lat="49.20435" lon="6.66582">
        <ele>155.98</ele>
        <time>2018-02-20T13:28:49.000Z</time>
      </trkpt>
      <trkpt lat="49.20446" lon="6.66576">
        <ele>151.84</ele>
        <time>2018-02-20T13:28:59.000Z</time>
      </trkpt>
      <trkpt lat="49.20459" lon="6.66572">
        <ele>152.69</ele>
        <time>2018-02-20T13:29:09.000Z</time>
      </trkpt>
      <trkpt lat="49.2047" lon="6.66561">
        <ele>155.13</ele>
        <time>2018-02-20T13:29:19.000Z</time>
      </trkpt>
      <trkpt lat="49.20481" lon="6.66548">
        <ele>158.24</ele>
        <time>2018-02-20T13:29:29.000Z</time>
      </trkpt>
      <trkpt lat="49.20494" lon="6.66538">
        <ele>161.19</ele>
        <time>2018-02-20T13:29:39.000Z</time>
      </trkpt>
      <trkpt lat="49.20508" lon="6.66532">
        <ele>162.3</ele>
        <time>2018-02-20T13:29:49.000Z</time>
      </trkpt>
      <trkpt lat="49.2052" lon="6.66523">
        <ele>163.25</ele>
        <time>2018-02-20T13:29:59.000Z</time>
      </trkpt>
      <trkpt lat="49.20531" lon="6.66515">
        <ele>161.09</ele>
        <time>2018-02-20T13:30:09.000Z</time>
      </trkpt>
      <trkpt lat="49.20543" lon="6.66512">
        <ele>158.56</ele>
        <time>2018-02-20T13:30:19.000Z</time>
      </trkpt>
      <trkpt lat="49.20554" lon="6.66502">
        <ele>158.79</ele>
        <time>2018-02-20T13:30:29.000Z</time>
      </trkpt>
      <trkpt lat="49.20566" lon="6.66489">
        <ele>158.02</ele>
        <time>2018-02-20T13:30:39.000Z</time>
      </trkpt>
      <trkpt lat="49.20577" lon="6.66482">
        <ele>157.12</ele>
        <time>2018-02-20T13:30:49.000Z</time>
      </trkpt>
      <trkpt lat="49.20588" lon="6.66475">
        <ele>154.43</ele>
        <time>2018-02-20T13:30:59.000Z</time>
      </trkpt>
      <trkpt lat="49.20599" lon="6.66466">
        <ele>152.26</ele>
        <time>2018-02-20T13:31:09.000Z</time>
      </trkpt>
      <trkpt lat="49.20613" lon="6.66459">
        <ele>154.68</ele>
        <time>2018-02-20T13:31:19.000Z</time>
      </trkpt>
      <trkpt lat="49.20629" lon="6.66457">
        <ele>161.26</ele>
        <time>2018-02-20T13:31:29.000Z</time>
      </trkpt>
      <trkpt lat="49.20646" lon="6.66457">
        <ele>167.69</ele>
        <time>2018-02-20T13:31:39.000Z</time>
      </trkpt>
      <trkpt lat="49.2066" lon="6.66458">
        <ele>169.55</ele>
        <time>2018-02-20T13:31:49.000Z</time>
      </trkpt>
      <trkpt lat="49.20676" lon="6.66455">
        <ele>173.88</ele>
        <time>2018-02-20T13:31:59.000Z</time>
      </trkpt>
      <trkpt lat="49.20687" lon="6.66444">
        <ele>175.12</ele>
        <time>2018-02-20T13:32:09.000Z</time>
      </trkpt>
      <trkpt lat="49.20684" lon="6.66429">
        <ele>167.24</ele>
        <time>2018-02-20T13:32:19.000Z</time>
      </trkpt>
      <trkpt lat="49.20676" lon="6.66404">
        <ele>171.45</ele>
        <time>2018-02-20T13:32:29.000Z</time>
      </trkpt>
      <trkpt lat="49.20673" lon="6.66381">
        <ele>175.59</ele>
        <time>2018-02-20T13:32:39.000Z</time>
      </trkpt>
      <trkpt lat="49.20669" lon="6.66363">
        <ele>178.16</ele>
        <time>2018-02-20T13:32:49.000Z</time>
      </trkpt>
      <trkpt lat="49.20664" lon="6.66348">
        <ele>181.45</ele>
        <time>2018-02-20T13:32:59.000Z</time>
      </trkpt>
      <trkpt lat="49.20658" lon="6.66337">
        <ele>178.99</ele>
        <time>2018-02-20T13:33:09.000Z</time>
      </trkpt>
      <trkpt lat="49.20651" lon="6.66326">
        <ele>178.63</ele>
        <time>2018-02-20T13:33:19.000Z</time>
      </trkpt>
      <trkpt lat="49.20647" lon="6.66313">
        <ele>175.6</ele>
        <time>2018-02-20T13:33:29.000Z</time>
      </trkpt>
      <trkpt lat="49.20638" lon="6.66296">
        <ele>177.24</ele>
        <time>2018-02-20T13:33:39.000Z</time>
      </trkpt>
      <trkpt lat="49.2063" lon="6.66278">
        <ele>176.28</ele>
        <time>2018-02-20T13:33:49.000Z</time>
      </trkpt>
      <trkpt lat="49.20624" lon="6.66262">
        <ele>173.5</ele>
        <time>2018-02-20T13:33:59.000Z</time>
      </trkpt>
      <trkpt lat="49.20618" lon="6.66246">
        <ele>170.59</ele>
        <time>2018-02-20T13:34:09.000Z</time>
      </trkpt>
      <trkpt lat="49.2061" lon="6.6623">
        <ele>169.96</ele>
        <time>2018-02-20T13:34:19.000Z</time>
      </trkpt>
      <trkpt lat="49.206" lon="6.66205">
        <ele>174.88</ele>
        <time>2018-02-20T13:34:29.000Z</time>
      </trkpt>
      <trkpt lat="49.20591" lon="6.66191">
        <ele>176.35</ele>
        <time>2018-02-20T13:34:39.000Z</time>
      </trkpt>
      <trkpt lat="49.20586" lon="6.66188">
        <ele>177.94</ele>
        <time>2018-02-20T13:34:49.000Z</time>
      </trkpt>
      <trkpt lat="49.20579" lon="6.66161">
        <ele>183.93</ele>
        <time>2018-02-20T13:34:59.000Z</time>
      </trkpt>
      <trkpt lat="49.20573" lon="6.66145">
        <ele>182.51</ele>
        <time>2018-02-20T13:35:09.000Z</time>
      </trkpt>
      <trkpt lat="49.20569" lon="6.66131">
        <ele>180.54</ele>
        <time>2018-02-20T13:35:19.000Z</time>
      </trkpt>
      <trkpt lat="49.20561" lon="6.66112">
        <ele>181.2</ele>
        <time>2018-02-20T13:35:29.000Z</time>
      </trkpt>
      <trkpt lat="49.20552" lon="6.66092">
        <ele>181.78</ele>
        <time>2018-02-20T13:35:39.000Z</time>
      </trkpt>
      <trkpt lat="49.2054" lon="6.66072">
        <ele>183.7</ele>
        <time>2018-02-20T13:35:49.000Z</time>
      </trkpt>
      <trkpt lat="49.20534" lon="6.66056">
        <ele>182.46</ele>
        <time>2018-02-20T13:35:59.000Z</time>
      </trkpt>
      <trkpt lat="49.20525" lon="6.66038">
        <ele>181.63</ele>
        <time>2018-02-20T13:36:09.000Z</time>
      </trkpt>
      <trkpt lat="49.20516" lon="6.66014">
        <ele>183.54</ele>
        <time>2018-02-20T13:36:19.000Z</time>
      </trkpt>
      <trkpt lat="49.20508" lon="6.65996">
        <ele>183.38</ele>
        <time>2018-02-20T13:36:29.000Z</time>
      </trkpt>
      <trkpt lat="49.205" lon="6.65982">
        <ele>181.28</ele>
        <time>2018-02-20T13:36:39.000Z</time>
      </trkpt>
      <trkpt lat="49.20494" lon="6.65965">
        <ele>179.8</ele>
        <time>2018-02-20T13:36:49.000Z</time>
      </trkpt>
      <trkpt lat="49.20486" lon="6.65939">
        <ele>183.68</ele>
        <time>2018-02-20T13:36:59.000Z</time>
      </trkpt>
      <trkpt lat="49.20476" lon="6.65924">
        <ele>184.58</ele>
        <time>2018-02-20T13:37:09.000Z</time>
      </trkpt>
      <trkpt lat="49.20466" lon="6.65914">
        <ele>186.14</ele>
        <time>2018-02-20T13:37:19.000Z</time>
      </trkpt>
      <trkpt lat="49.20459" lon="6.65901">
        <ele>185.84</ele>
        <time>2018-02-20T13:37:29.000Z</time>
      </trkpt>
      <trkpt lat="49.20454" lon="6.65888">
        <ele>185.05</ele>
        <time>2018-02-20T13:37:39.000Z</time>
      </trkpt>
      <trkpt lat="49.20441" lon="6.65873">
        <ele>189.89</ele>
        <time>2018-02-20T13:37:49.000Z</time>
      </trkpt>
      <trkpt lat="49.2043" lon="6.65858">
        <ele>194.47</ele>
        <time>2018-02-20T13:37:59.000Z</time>
      </trkpt>
      <trkpt lat="49.20428" lon="6.65841">
        <ele>194.77</ele>
        <time>2018-02-20T13:38:09.000Z</time>
      </trkpt>
      <trkpt lat="49.20431" lon="6.65825">
        <ele>191.54</ele>
        <time>2018-02-20T13:38:19.000Z</time>
      </trkpt>
      <trkpt lat="49.20437" lon="6.65809">
        <ele>187.35</ele>
        <time>2018-02-20T13:38:29.000Z</time>
      </trkpt>
      <trkpt lat="49.20443" lon="6.6579">
        <ele>185.18</ele>
        <time>2018-02-20T13:38:39.000Z</time>
      </trkpt>
      <trkpt lat="49.20448" lon="6.65776">
        <ele>185.04</ele>
        <time>2018-02-20T13:38:49.000Z</time>
      </trkpt>
      <trkpt lat="49.20455" lon="6.65761">
        <ele>186.93</ele>
        <time>2018-02-20T13:38:59.000Z</time>
      </trkpt>
      <trkpt lat="49.20466" lon="6.65745">
        <ele>188.5</ele>
        <time>2018-02-20T13:39:09.000Z</time>
      </trkpt>
      <trkpt lat="49.20473" lon="6.65725">
        <ele>190.07</ele>
        <time>2018-02-20T13:39:19.000Z</time>
      </trkpt>
      <trkpt lat="49.20479" lon="6.65716">
        <ele>190.67</ele>
        <time>2018-02-20T13:39:29.000Z</time>
      </trkpt>
      <trkpt lat="49.20491" lon="6.65706">
        <ele>188.67</ele>
        <time>2018-02-20T13:39:39.000Z</time>
      </trkpt>
      <trkpt lat="49.20504" lon="6.657">
        <ele>185.06</ele>
        <time>2018-02-20T13:39:49.000Z</time>
      </trkpt>
      <trkpt lat="49.20515" lon="6.65689">
        <ele>184.09</ele>
        <time>2018-02-20T13:39:59.000Z</time>
      </trkpt>
      <trkpt lat="49.20525" lon="6.65676">
        <ele>181.72</ele>
        <time>2018-02-20T13:40:09.000Z</time>
      </trkpt>
      <trkpt lat="49.20536" lon="6.65661">
        <ele>185.37</ele>
        <time>2018-02-20T13:40:19.000Z</time>
      </trkpt>
      <trkpt lat="49.20539" lon="6.65642">
        <ele>185.62</ele>
        <time>2018-02-20T13:40:29.000Z</time>
      </trkpt>
      <trkpt lat="49.20538" lon="6.65626">
        <ele>182.65</ele>
        <time>2018-02-20T13:40:39.000Z</time>
      </trkpt>
      <trkpt lat="49.20542" lon="6.65601">
        <ele>177.82</ele>
        <time>2018-02-20T13:40:49.000Z</time>
      </trkpt>
      <trkpt lat="49.20553" lon="6.65587">
        <ele>175.53</ele>
        <time>2018-02-20T13:40:59.000Z</time>
      </trkpt>
      <trkpt lat="49.20563" lon="6.65577">
        <ele>177.01</ele>
        <time>2018-02-20T13:41:09.000Z</time>
      </trkpt>
      <trkpt lat="49.20573" lon="6.65556">
        <ele>182.94</ele>
        <time>2018-02-20T13:41:19.000Z</time>
      </trkpt>
      <trkpt lat="49.20583" lon="6.65542">
        <ele>184.89</ele>
        <time>2018-02-20T13:41:29.000Z</time>
      </trkpt>
      <trkpt lat="49.20592" lon="6.65531">
        <ele>183.87</ele>
        <time>2018-02-20T13:41:39.000Z</time>
      </trkpt>
      <trkpt lat="49.20597" lon="6.65514">
        <ele>179.38</ele>
        <time>2018-02-20T13:41:49.000Z</time>
      </trkpt>
      <trkpt lat="49.20601" lon="6.65488">
        <ele>181.96</ele>
        <time>2018-02-20T13:41:59.000Z</time>
      </trkpt>
      <trkpt lat="49.20602" lon="6.65462">
        <ele>190.33</ele>
        <time>2018-02-20T13:42:09.000Z</time>
      </trkpt>
      <trkpt lat="49.20603" lon="6.6545">
        <ele>188.56</ele>
        <time>2018-02-20T13:42:19.000Z</time>
      </trkpt>
      <trkpt lat="49.20602" lon="6.65437">
        <ele>182.91</ele>
        <time>2018-02-20T13:42:29.000Z</time>
      </trkpt>
      <trkpt lat="49.20607" lon="6.65425">
        <ele>178.68</ele>
        <time>2018-02-20T13:42:39.000Z</time>
      </trkpt>
      <trkpt lat="49.2061" lon="6.65408">
        <ele>181.38</ele>
        <time>2018-02-20T13:42:49.000Z</time>
      </trkpt>
      <trkpt lat="49.20624" lon="6.65401">
        <ele>181.38</ele>
        <time>2018-02-20T13:42:59.000Z</time>
      </trkpt>
      <trkpt lat="49.20639" lon="6.65401">
        <ele>179.2</ele>
        <time>2018-02-20T13:43:09.000Z</time>
      </trkpt>
      <trkpt lat="49.20652" lon="6.654">
        <ele>175.5</ele>
        <time>2018-02-20T13:43:19.000Z</time>
      </trkpt>
      <trkpt lat="49.20667" lon="6.65405">
        <ele>177.78</ele>
        <time>2018-02-20T13:43:29.000Z</time>
      </trkpt>
      <trkpt lat="49.20684" lon="6.65405">
        <ele>185.92</ele>
        <time>2018-02-20T13:43:39.000Z</time>
      </trkpt>
      <trkpt lat="49.20694" lon="6.65397">
        <ele>184.88</ele>
        <time>2018-02-20T13:43:49.000Z</time>
      </trkpt>
      <trkpt lat="49.207" lon="6.65382">
        <ele>177.36</ele>
        <time>2018-02-20T13:43:59.000Z</time>
      </trkpt>
      <trkpt lat="49.20695" lon="6.65362">
        <ele>173.84</ele>
        <time>2018-02-20T13:44:09.000Z</time>
      </trkpt>
      <trkpt lat="49.20696" lon="6.65348">
        <ele>174.76</ele>
        <time>2018-02-20T13:44:19.000Z</time>
      </trkpt>
      <trkpt lat="49.20694" lon="6.65334">
        <ele>174.77</ele>
        <time>2018-02-20T13:44:29.000Z</time>
      </trkpt>
      <trkpt lat="49.20686" lon="6.6531">
        <ele>181.64</ele>
        <time>2018-02-20T13:44:39.000Z</time>
      </trkpt>
      <trkpt lat="49.20677" lon="6.65289">
        <ele>183.73</ele>
        <time>2018-02-20T13:44:49.000Z</time>
      </trkpt>
      <trkpt lat="49.20674" lon="6.65275">
        <ele>183.16</ele>
        <time>2018-02-20T13:44:59.000Z</time>
      </trkpt>
      <trkpt lat="49.2068" lon="6.65254">
        <ele>180.46</ele>
        <time>2018-02-20T13:45:09.000Z</time>
      </trkpt>
      <trkpt lat="49.2069" lon="6.65233">
        <ele>181.46</ele>
        <time>2018-02-20T13:45:19.000Z</time>
      </trkpt>
      <trkpt lat="49.207" lon="6.6522">
        <ele>178.59</ele>
        <time>2018-02-20T13:45:29.000Z</time>
      </trkpt>
      <trkpt lat="49.20711" lon="6.65209">
        <ele>182.54</ele>
        <time>2018-02-20T13:45:39.000Z</time>
      </trkpt>
      <trkpt lat="49.20725" lon="6.65205">
        <ele>187.6</ele>
        <time>2018-02-20T13:45:49.000Z</time>
      </trkpt>
      <trkpt lat="49.20739" lon="6.65199">
        <ele>182.58</ele>
        <time>2018-02-20T13:45:59.000Z</time>
      </trkpt>
      <trkpt lat="49.2075" lon="6.65189">
        <ele>179.53</ele>
        <time>2018-02-20T13:46:09.000Z</time>
      </trkpt>
      <trkpt lat="49.2076" lon="6.65177">
        <ele>177.41</ele>
        <time>2018-02-20T13:46:19.000Z</time>
      </trkpt>
      <trkpt lat="49.20765" lon="6.65166">
        <ele>179.21</ele>
        <time>2018-02-20T13:46:29.000Z</time>
      </trkpt>
      <trkpt lat="49.2077" lon="6.65155">
        <ele>178.96</ele>
        <time>2018-02-20T13:46:39.000Z</time>
      </trkpt>
      <trkpt lat="49.20778" lon="6.65139">
        <ele>178.59</ele>
        <time>2018-02-20T13:46:49.000Z</time>
      </trkpt>
      <trkpt lat="49.20778" lon="6.65114">
        <ele>179.44</ele>
        <time>2018-02-20T13:46:59.000Z</time>
      </trkpt>
      <trkpt lat="49.20778" lon="6.65088">
        <ele>181.49</ele>
        <time>2018-02-20T13:47:09.000Z</time>
      </trkpt>
      <trkpt lat="49.20789" lon="6.65069">
        <ele>179.03</ele>
        <time>2018-02-20T13:47:19.000Z</time>
      </trkpt>
      <trkpt lat="49.20803" lon="6.65053">
        <ele>180.6</ele>
        <time>2018-02-20T13:47:29.000Z</time>
      </trkpt>
      <trkpt lat="49.20813" lon="6.6504">
        <ele>181.35</ele>
        <time>2018-02-20T13:47:39.000Z</time>
      </trkpt>
      <trkpt lat="49.20819" lon="6.6503">
        <ele>182.06</ele>
        <time>2018-02-20T13:47:49.000Z</time>
      </trkpt>
      <trkpt lat="49.20828" lon="6.65019">
        <ele>178.25</ele>
        <time>2018-02-20T13:47:59.000Z</time>
      </trkpt>
      <trkpt lat="49.20834" lon="6.65009">
        <ele>177.62</ele>
        <time>2018-02-20T13:48:09.000Z</time>
      </trkpt>
      <trkpt lat="49.20841" lon="6.64998">
        <ele>179.4</ele>
        <time>2018-02-20T13:48:19.000Z</time>
      </trkpt>
      <trkpt lat="49.20851" lon="6.64984">
        <ele>182.04</ele>
        <time>2018-02-20T13:48:29.000Z</time>
      </trkpt>
      <trkpt lat="49.20861" lon="6.64972">
        <ele>180.11</ele>
        <time>2018-02-20T13:48:39.000Z</time>
      </trkpt>
      <trkpt lat="49.2087" lon="6.6496">
        <ele>181.11</ele>
        <time>2018-02-20T13:48:49.000Z</time>
      </trkpt>
      <trkpt lat="49.20878" lon="6.64948">
        <ele>181.66</ele>
        <time>2018-02-20T13:48:59.000Z</time>
      </trkpt>
      <trkpt lat="49.20888" lon="6.64936">
        <ele>179.29</ele>
        <time>2018-02-20T13:49:09.000Z</time>
      </trkpt>
      <trkpt lat="49.20897" lon="6.6492">
        <ele>180.99</ele>
        <time>2018-02-20T13:49:19.000Z</time>
      </trkpt>
      <trkpt lat="49.20907" lon="6.64913">
        <ele>179.38</ele>
        <time>2018-02-20T13:49:29.000Z</time>
      </trkpt>
      <trkpt lat="49.20912" lon="6.64896">
        <ele>184.04</ele>
        <time>2018-02-20T13:49:39.000Z</time>
      </trkpt>
      <trkpt lat="49.2092" lon="6.64884">
        <ele>184.53</ele>
        <time>2018-02-20T13:49:49.000Z</time>
      </trkpt>
      <trkpt lat="49.20932" lon="6.64871">
        <ele>177.5</ele>
        <time>2018-02-20T13:49:59.000Z</time>
      </trkpt>
      <trkpt lat="49.20943" lon="6.64862">
        <ele>174.22</ele>
        <time>2018-02-20T13:50:09.000Z</time>
      </trkpt>
      <trkpt lat="49.20954" lon="6.64856">
        <ele>173.9</ele>
        <time>2018-02-20T13:50:19.000Z</time>
      </trkpt>
      <trkpt lat="49.20968" lon="6.64848">
        <ele>175.28</ele>
        <time>2018-02-20T13:50:29.000Z</time>
      </trkpt>
      <trkpt lat="49.20976" lon="6.64824">
        <ele>176.4</ele>
        <time>2018-02-20T13:50:39.000Z</time>
      </trkpt>
      <trkpt lat="49.20988" lon="6.64807">
        <ele>177.89</ele>
        <time>2018-02-20T13:50:49.000Z</time>
      </trkpt>
      <trkpt lat="49.20998" lon="6.64785">
        <ele>178.57</ele>
        <time>2018-02-20T13:50:59.000Z</time>
      </trkpt>
      <trkpt lat="49.21008" lon="6.6477">
        <ele>177.43</ele>
        <time>2018-02-20T13:51:09.000Z</time>
      </trkpt>
      <trkpt lat="49.21018" lon="6.64759">
        <ele>176.3</ele>
        <time>2018-02-20T13:51:19.000Z</time>
      </trkpt>
      <trkpt lat="49.21027" lon="6.64747">
        <ele>176.26</ele>
        <time>2018-02-20T13:51:29.000Z</time>
      </trkpt>
      <trkpt lat="49.21034" lon="6.64732">
        <ele>177.22</ele>
        <time>2018-02-20T13:51:39.000Z</time>
      </trkpt>
      <trkpt lat="49.21041" lon="6.64714">
        <ele>178.47</ele>
        <time>2018-02-20T13:51:49.000Z</time>
      </trkpt>
      <trkpt lat="49.21049" lon="6.64702">
        <ele>178.34</ele>
        <time>2018-02-20T13:51:59.000Z</time>
      </trkpt>
      <trkpt lat="49.21058" lon="6.64693">
        <ele>176.31</ele>
        <time>2018-02-20T13:52:09.000Z</time>
      </trkpt>
      <trkpt lat="49.21071" lon="6.64681">
        <ele>176.38</ele>
        <time>2018-02-20T13:52:19.000Z</time>
      </trkpt>
      <trkpt lat="49.21079" lon="6.64667">
        <ele>177.52</ele>
        <time>2018-02-20T13:52:29.000Z</time>
      </trkpt>
      <trkpt lat="49.2109" lon="6.64657">
        <ele>177.03</ele>
        <time>2018-02-20T13:52:39.000Z</time>
      </trkpt>
      <trkpt lat="49.21102" lon="6.64648">
        <ele>174.55</ele>
        <time>2018-02-20T13:52:49.000Z</time>
      </trkpt>
      <trkpt lat="49.2111" lon="6.64632">
        <ele>176.63</ele>
        <time>2018-02-20T13:52:59.000Z</time>
      </trkpt>
      <trkpt lat="49.21118" lon="6.64616">
        <ele>176.7</ele>
        <time>2018-02-20T13:53:09.000Z</time>
      </trkpt>
      <trkpt lat="49.21127" lon="6.64609">
        <ele>172.67</ele>
        <time>2018-02-20T13:53:19.000Z</time>
      </trkpt>
      <trkpt lat="49.21134" lon="6.64591">
        <ele>170.46</ele>
        <time>2018-02-20T13:53:29.000Z</time>
      </trkpt>
      <trkpt lat="49.21142" lon="6.64577">
        <ele>172.36</ele>
        <time>2018-02-20T13:53:39.000Z</time>
      </trkpt>
      <trkpt lat="49.2115" lon="6.64564">
        <ele>175.58</ele>
        <time>2018-02-20T13:53:49.000Z</time>
      </trkpt>
      <trkpt lat="49.21157" lon="6.6455">
        <ele>177.64</ele>
        <time>2018-02-20T13:53:59.000Z</time>
      </trkpt>
      <trkpt lat="49.21167" lon="6.64541">
        <ele>176.4</ele>
        <time>2018-02-20T13:54:09.000Z</time>
      </trkpt>
      <trkpt lat="49.21174" lon="6.64529">
        <ele>175.62</ele>
        <time>2018-02-20T13:54:19.000Z</time>
      </trkpt>
      <trkpt lat="49.21185" lon="6.64524">
        <ele>175.43</ele>
        <time>2018-02-20T13:54:29.000Z</time>
      </trkpt>
      <trkpt lat="49.21195" lon="6.64516">
        <ele>171.78</ele>
        <time>2018-02-20T13:54:39.000Z</time>
      </trkpt>
      <trkpt lat="49.21201" lon="6.64505">
        <ele>166.42</ele>
        <time>2018-02-20T13:54:49.000Z</time>
      </trkpt>
      <trkpt lat="49.21212" lon="6.64488">
        <ele>167.06</ele>
        <time>2018-02-20T13:54:59.000Z</time>
      </trkpt>
      <trkpt lat="49.21223" lon="6.64477">
        <ele>163.84</ele>
        <time>2018-02-20T13:55:09.000Z</time>
      </trkpt>
      <trkpt lat="49.21232" lon="6.64465">
        <ele>166.93</ele>
        <time>2018-02-20T13:55:19.000Z</time>
      </trkpt>
      <trkpt lat="49.21235" lon="6.64444">
        <ele>169.95</ele>
        <time>2018-02-20T13:55:29.000Z</time>
      </trkpt>
      <trkpt lat="49.21236" lon="6.64435">
        <ele>173.16</ele>
        <time>2018-02-20T13:55:39.000Z</time>
      </trkpt>
      <trkpt lat="49.2124" lon="6.64433">
        <ele>176.7</ele>
        <time>2018-02-20T13:56:00.000Z</time>
      </trkpt>
      <trkpt lat="49.21241" lon="6.64435">
        <ele>176.37</ele>
        <time>2018-02-20T13:56:10.000Z</time>
      </trkpt>
      <trkpt lat="49.21239" lon="6.64429">
        <ele>178.61</ele>
        <time>2018-02-20T13:56:20.000Z</time>
      </trkpt>
      <trkpt lat="49.21231" lon="6.64416">
        <ele>183.59</ele>
        <time>2018-02-20T13:56:30.000Z</time>
      </trkpt>
      <trkpt lat="49.21221" lon="6.644">
        <ele>184.37</ele>
        <time>2018-02-20T13:56:40.000Z</time>
      </trkpt>
      <trkpt lat="49.21212" lon="6.64389">
        <ele>181.72</ele>
        <time>2018-02-20T13:56:50.000Z</time>
      </trkpt>
      <trkpt lat="49.212" lon="6.64373">
        <ele>185.46</ele>
        <time>2018-02-20T13:57:00.000Z</time>
      </trkpt>
      <trkpt lat="49.21191" lon="6.64361">
        <ele>188.24</ele>
        <time>2018-02-20T13:57:10.000Z</time>
      </trkpt>
      <trkpt lat="49.21183" lon="6.64347">
        <ele>190.25</ele>
        <time>2018-02-20T13:57:20.000Z</time>
      </trkpt>
      <trkpt lat="49.21173" lon="6.64334">
        <ele>189.25</ele>
        <time>2018-02-20T13:57:30.000Z</time>
      </trkpt>
      <trkpt lat="49.21163" lon="6.64317">
        <ele>186.82</ele>
        <time>2018-02-20T13:57:40.000Z</time>
      </trkpt>
      <trkpt lat="49.21155" lon="6.64304">
        <ele>186.41</ele>
        <time>2018-02-20T13:57:50.000Z</time>
      </trkpt>
      <trkpt lat="49.21147" lon="6.64294">
        <ele>191.63</ele>
        <time>2018-02-20T13:58:00.000Z</time>
      </trkpt>
      <trkpt lat="49.21137" lon="6.6428">
        <ele>194.66</ele>
        <time>2018-02-20T13:58:10.000Z</time>
      </trkpt>
      <trkpt lat="49.21129" lon="6.64267">
        <ele>192.36</ele>
        <time>2018-02-20T13:58:20.000Z</time>
      </trkpt>
      <trkpt lat="49.21125" lon="6.64256">
        <ele>185.41</ele>
        <time>2018-02-20T13:58:30.000Z</time>
      </trkpt>
      <trkpt lat="49.21121" lon="6.64247">
        <ele>180.65</ele>
        <time>2018-02-20T13:58:40.000Z</time>
      </trkpt>
      <trkpt lat="49.21119" lon="6.64242">
        <ele>176.27</ele>
        <time>2018-02-20T13:58:50.000Z</time>
      </trkpt>
      <trkpt lat="49.21114" lon="6.64234">
        <ele>180.47</ele>
        <time>2018-02-20T13:59:37.000Z</time>
      </trkpt>
      <trkpt lat="49.2111" lon="6.64233">
        <ele>181.16</ele>
        <time>2018-02-20T13:59:47.000Z</time>
      </trkpt>
      <trkpt lat="49.21102" lon="6.64227">
        <ele>182.62</ele>
        <time>2018-02-20T13:59:57.000Z</time>
      </trkpt>
      <trkpt lat="49.21094" lon="6.64225">
        <ele>186.11</ele>
        <time>2018-02-20T14:00:07.000Z</time>
      </trkpt>
      <trkpt lat="49.21095" lon="6.64229">
        <ele>191.67</ele>
        <time>2018-02-20T14:00:17.000Z</time>
      </trkpt>
      <trkpt lat="49.211" lon="6.64227">
        <ele>198.72</ele>
        <time>2018-02-20T14:00:52.000Z</time>
      </trkpt>
      <trkpt lat="49.21108" lon="6.6423">
        <ele>201.44</ele>
        <time>2018-02-20T14:01:02.000Z</time>
      </trkpt>
      <trkpt lat="49.2111" lon="6.64228">
        <ele>202.37</ele>
        <time>2018-02-20T14:01:12.000Z</time>
      </trkpt>
      <trkpt lat="49.21111" lon="6.64227">
        <ele>199.02</ele>
        <time>2018-02-20T14:01:43.000Z</time>
      </trkpt>
      <trkpt lat="49.21115" lon="6.64227">
        <ele>197.92</ele>
        <time>2018-02-20T14:02:24.000Z</time>
      </trkpt>
      <trkpt lat="49.21124" lon="6.64227">
        <ele>194.82</ele>
        <time>2018-02-20T14:02:34.000Z</time>
      </trkpt>
      <trkpt lat="49.21135" lon="6.6422">
        <ele>193.3</ele>
        <time>2018-02-20T14:02:44.000Z</time>
      </trkpt>
      <trkpt lat="49.21145" lon="6.64215">
        <ele>189.02</ele>
        <time>2018-02-20T14:02:54.000Z</time>
      </trkpt>
      <trkpt lat="49.21162" lon="6.64215">
        <ele>192.94</ele>
        <time>2018-02-20T14:03:04.000Z</time>
      </trkpt>
      <trkpt lat="49.21174" lon="6.64209">
        <ele>188.65</ele>
        <time>2018-02-20T14:03:14.000Z</time>
      </trkpt>
      <trkpt lat="49.21189" lon="6.64203">
        <ele>189.01</ele>
        <time>2018-02-20T14:03:24.000Z</time>
      </trkpt>
      <trkpt lat="49.212" lon="6.6419">
        <ele>185.32</ele>
        <time>2018-02-20T14:03:34.000Z</time>
      </trkpt>
      <trkpt lat="49.21209" lon="6.64182">
        <ele>187.23</ele>
        <time>2018-02-20T14:03:44.000Z</time>
      </trkpt>
      <trkpt lat="49.21217" lon="6.64176">
        <ele>186.66</ele>
        <time>2018-02-20T14:03:54.000Z</time>
      </trkpt>
      <trkpt lat="49.21227" lon="6.64169">
        <ele>183.92</ele>
        <time>2018-02-20T14:04:04.000Z</time>
      </trkpt>
      <trkpt lat="49.21242" lon="6.64163">
        <ele>177.78</ele>
        <time>2018-02-20T14:04:14.000Z</time>
      </trkpt>
      <trkpt lat="49.21259" lon="6.64163">
        <ele>176.26</ele>
        <time>2018-02-20T14:04:24.000Z</time>
      </trkpt>
      <trkpt lat="49.21277" lon="6.64163">
        <ele>177.03</ele>
        <time>2018-02-20T14:04:34.000Z</time>
      </trkpt>
      <trkpt lat="49.21296" lon="6.64164">
        <ele>177.03</ele>
        <time>2018-02-20T14:04:44.000Z</time>
      </trkpt>
      <trkpt lat="49.21308" lon="6.64155">
        <ele>179.16</ele>
        <time>2018-02-20T14:04:54.000Z</time>
      </trkpt>
      <trkpt lat="49.21321" lon="6.64148">
        <ele>178.39</ele>
        <time>2018-02-20T14:05:04.000Z</time>
      </trkpt>
      <trkpt lat="49.21333" lon="6.64142">
        <ele>178</ele>
        <time>2018-02-20T14:05:14.000Z</time>
      </trkpt>
      <trkpt lat="49.21348" lon="6.64139">
        <ele>182.15</ele>
        <time>2018-02-20T14:05:24.000Z</time>
      </trkpt>
      <trkpt lat="49.2136" lon="6.64131">
        <ele>180.34</ele>
        <time>2018-02-20T14:05:34.000Z</time>
      </trkpt>
      <trkpt lat="49.21375" lon="6.64126">
        <ele>180.67</ele>
        <time>2018-02-20T14:05:44.000Z</time>
      </trkpt>
      <trkpt lat="49.2139" lon="6.6412">
        <ele>179.45</ele>
        <time>2018-02-20T14:05:54.000Z</time>
      </trkpt>
      <trkpt lat="49.21405" lon="6.64109">
        <ele>180.42</ele>
        <time>2018-02-20T14:06:04.000Z</time>
      </trkpt>
      <trkpt lat="49.21416" lon="6.64094">
        <ele>184.31</ele>
        <time>2018-02-20T14:06:14.000Z</time>
      </trkpt>
      <trkpt lat="49.21427" lon="6.6408">
        <ele>184.07</ele>
        <time>2018-02-20T14:06:24.000Z</time>
      </trkpt>
      <trkpt lat="49.21442" lon="6.64078">
        <ele>176.52</ele>
        <time>2018-02-20T14:06:34.000Z</time>
      </trkpt>
      <trkpt lat="49.21455" lon="6.64073">
        <ele>173.74</ele>
        <time>2018-02-20T14:06:44.000Z</time>
      </trkpt>
      <trkpt lat="49.21467" lon="6.64073">
        <ele>172.9</ele>
        <time>2018-02-20T14:06:54.000Z</time>
      </trkpt>
      <trkpt lat="49.21475" lon="6.64063">
        <ele>172.58</ele>
        <time>2018-02-20T14:07:04.000Z</time>
      </trkpt>
      <trkpt lat="49.21486" lon="6.64055">
        <ele>172.93</ele>
        <time>2018-02-20T14:07:14.000Z</time>
      </trkpt>
      <trkpt lat="49.21498" lon="6.64052">
        <ele>173.75</ele>
        <time>2018-02-20T14:07:24.000Z</time>
      </trkpt>
      <trkpt lat="49.21517" lon="6.64048">
        <ele>173.85</ele>
        <time>2018-02-20T14:07:34.000Z</time>
      </trkpt>
      <trkpt lat="49.21528" lon="6.64041">
        <ele>169.49</ele>
        <time>2018-02-20T14:07:44.000Z</time>
      </trkpt>
      <trkpt lat="49.21541" lon="6.64037">
        <ele>164.69</ele>
        <time>2018-02-20T14:07:54.000Z</time>
      </trkpt>
      <trkpt lat="49.21563" lon="6.6404">
        <ele>170.44</ele>
        <time>2018-02-20T14:08:04.000Z</time>
      </trkpt>
      <trkpt lat="49.2158" lon="6.64039">
        <ele>167.42</ele>
        <time>2018-02-20T14:08:14.000Z</time>
      </trkpt>
      <trkpt lat="49.21594" lon="6.64034">
        <ele>161.69</ele>
        <time>2018-02-20T14:08:24.000Z</time>
      </trkpt>
      <trkpt lat="49.21608" lon="6.64023">
        <ele>161.04</ele>
        <time>2018-02-20T14:08:34.000Z</time>
      </trkpt>
      <trkpt lat="49.21621" lon="6.64013">
        <ele>160.34</ele>
        <time>2018-02-20T14:08:44.000Z</time>
      </trkpt>
      <trkpt lat="49.21636" lon="6.64013">
        <ele>156.8</ele>
        <time>2018-02-20T14:08:54.000Z</time>
      </trkpt>
      <trkpt lat="49.21651" lon="6.6401">
        <ele>157.97</ele>
        <time>2018-02-20T14:09:04.000Z</time>
      </trkpt>
      <trkpt lat="49.21664" lon="6.64001">
        <ele>162.84</ele>
        <time>2018-02-20T14:09:14.000Z</time>
      </trkpt>
      <trkpt lat="49.21676" lon="6.6399">
        <ele>168.62</ele>
        <time>2018-02-20T14:09:24.000Z</time>
      </trkpt>
      <trkpt lat="49.21688" lon="6.63975">
        <ele>172.13</ele>
        <time>2018-02-20T14:09:34.000Z</time>
      </trkpt>
      <trkpt lat="49.21699" lon="6.63967">
        <ele>172.63</ele>
        <time>2018-02-20T14:09:44.000Z</time>
      </trkpt>
      <trkpt lat="49.21712" lon="6.63963">
        <ele>170.28</ele>
        <time>2018-02-20T14:09:54.000Z</time>
      </trkpt>
      <trkpt lat="49.21722" lon="6.63952">
        <ele>169.47</ele>
        <time>2018-02-20T14:10:04.000Z</time>
      </trkpt>
      <trkpt lat="49.21733" lon="6.63941">
        <ele>166.91</ele>
        <time>2018-02-20T14:10:14.000Z</time>
      </trkpt>
      <trkpt lat="49.21745" lon="6.63931">
        <ele>163.6</ele>
        <time>2018-02-20T14:10:24.000Z</time>
      </trkpt>
      <trkpt lat="49.21755" lon="6.63917">
        <ele>158.83</ele>
        <time>2018-02-20T14:10:34.000Z</time>
      </trkpt>
      <trkpt lat="49.21768" lon="6.63906">
        <ele>158.78</ele>
        <time>2018-02-20T14:10:44.000Z</time>
      </trkpt>
      <trkpt lat="49.21782" lon="6.63897">
        <ele>160.87</ele>
        <time>2018-02-20T14:10:54.000Z</time>
      </trkpt>
      <trkpt lat="49.21798" lon="6.63893">
        <ele>165.64</ele>
        <time>2018-02-20T14:11:04.000Z</time>
      </trkpt>
      <trkpt lat="49.21811" lon="6.63889">
        <ele>165.97</ele>
        <time>2018-02-20T14:11:14.000Z</time>
      </trkpt>
      <trkpt lat="49.21822" lon="6.6388">
        <ele>163.55</ele>
        <time>2018-02-20T14:11:24.000Z</time>
      </trkpt>
      <trkpt lat="49.2183" lon="6.6386">
        <ele>165.97</ele>
        <time>2018-02-20T14:11:34.000Z</time>
      </trkpt>
      <trkpt lat="49.2183" lon="6.63857">
        <ele>160.29</ele>
        <time>2018-02-20T14:11:44.000Z</time>
      </trkpt>
      <trkpt lat="49.2182" lon="6.63855">
        <ele>166.43</ele>
        <time>2018-02-20T14:12:23.000Z</time>
      </trkpt>
      <trkpt lat="49.21819" lon="6.63854">
        <ele>164.08</ele>
        <time>2018-02-20T14:12:33.000Z</time>
      </trkpt>
      <trkpt lat="49.21826" lon="6.63845">
        <ele>167.16</ele>
        <time>2018-02-20T14:13:11.000Z</time>
      </trkpt>
      <trkpt lat="49.21825" lon="6.63843">
        <ele>161.48</ele>
        <time>2018-02-20T14:13:21.000Z</time>
      </trkpt>
      <trkpt lat="49.21817" lon="6.63851">
        <ele>160.81</ele>
        <time>2018-02-20T14:13:56.000Z</time>
      </trkpt>
      <trkpt lat="49.21815" lon="6.63852">
        <ele>164.38</ele>
        <time>2018-02-20T14:14:06.000Z</time>
      </trkpt>
      <trkpt lat="49.21823" lon="6.6385">
        <ele>168.06</ele>
        <time>2018-02-20T14:14:52.000Z</time>
      </trkpt>
      <trkpt lat="49.21832" lon="6.6385">
        <ele>166.66</ele>
        <time>2018-02-20T14:15:02.000Z</time>
      </trkpt>
      <trkpt lat="49.21852" lon="6.6385">
        <ele>167.73</ele>
        <time>2018-02-20T14:15:12.000Z</time>
      </trkpt>
      <trkpt lat="49.21862" lon="6.63841">
        <ele>169.6</ele>
        <time>2018-02-20T14:15:22.000Z</time>
      </trkpt>
      <trkpt lat="49.21862" lon="6.63837">
        <ele>170.18</ele>
        <time>2018-02-20T14:15:32.000Z</time>
      </trkpt>
      <trkpt lat="49.21862" lon="6.63835">
        <ele>174.83</ele>
        <time>2018-02-20T14:15:47.000Z</time>
      </trkpt>
      <trkpt lat="49.21863" lon="6.63837">
        <ele>177.27</ele>
        <time>2018-02-20T14:15:57.000Z</time>
      </trkpt>
      <trkpt lat="49.21865" lon="6.63844">
        <ele>180.36</ele>
        <time>2018-02-20T14:16:07.000Z</time>
      </trkpt>
      <trkpt lat="49.21863" lon="6.63838">
        <ele>180.15</ele>
        <time>2018-02-20T14:16:17.000Z</time>
      </trkpt>
      <trkpt lat="49.21854" lon="6.63834">
        <ele>183.31</ele>
        <time>2018-02-20T14:16:27.000Z</time>
      </trkpt>
      <trkpt lat="49.2184" lon="6.63836">
        <ele>174.66</ele>
        <time>2018-02-20T14:16:37.000Z</time>
      </trkpt>
      <trkpt lat="49.21828" lon="6.63837">
        <ele>167.85</ele>
        <time>2018-02-20T14:16:47.000Z</time>
      </trkpt>
      <trkpt lat="49.21813" lon="6.63842">
        <ele>168.04</ele>
        <time>2018-02-20T14:16:57.000Z</time>
      </trkpt>
      <trkpt lat="49.21799" lon="6.6384">
        <ele>166.25</ele>
        <time>2018-02-20T14:17:07.000Z</time>
      </trkpt>
      <trkpt lat="49.21786" lon="6.63843">
        <ele>166.59</ele>
        <time>2018-02-20T14:17:17.000Z</time>
      </trkpt>
      <trkpt lat="49.21772" lon="6.63844">
        <ele>171.69</ele>
        <time>2018-02-20T14:17:27.000Z</time>
      </trkpt>
      <trkpt lat="49.21759" lon="6.63849">
        <ele>176.77</ele>
        <time>2018-02-20T14:17:37.000Z</time>
      </trkpt>
      <trkpt lat="49.21757" lon="6.63849">
        <ele>178.48</ele>
        <time>2018-02-20T14:17:47.000Z</time>
      </trkpt>
      <trkpt lat="49.21741" lon="6.63853">
        <ele>177.76</ele>
        <time>2018-02-20T14:17:57.000Z</time>
      </trkpt>
      <trkpt lat="49.2173" lon="6.63852">
        <ele>175.38</ele>
        <time>2018-02-20T14:18:07.000Z</time>
      </trkpt>
      <trkpt lat="49.21718" lon="6.63852">
        <ele>172.31</ele>
        <time>2018-02-20T14:18:17.000Z</time>
      </trkpt>
      <trkpt lat="49.21705" lon="6.63849">
        <ele>172.21</ele>
        <time>2018-02-20T14:18:27.000Z</time>
      </trkpt>
      <trkpt lat="49.21693" lon="6.63849">
        <ele>174.25</ele>
        <time>2018-02-20T14:18:37.000Z</time>
      </trkpt>
      <trkpt lat="49.2168" lon="6.63853">
        <ele>178.44</ele>
        <time>2018-02-20T14:18:47.000Z</time>
      </trkpt>
      <trkpt lat="49.21666" lon="6.63852">
        <ele>180.97</ele>
        <time>2018-02-20T14:18:57.000Z</time>
      </trkpt>
      <trkpt lat="49.21661" lon="6.63856">
        <ele>178.08</ele>
        <time>2018-02-20T14:19:07.000Z</time>
      </trkpt>
      <trkpt lat="49.2166" lon="6.63855">
        <ele>156.48</ele>
        <time>2018-02-20T14:19:59.000Z</time>
      </trkpt>
      <trkpt lat="49.21645" lon="6.63853">
        <ele>160.08</ele>
        <time>2018-02-20T14:20:09.000Z</time>
      </trkpt>
      <trkpt lat="49.21634" lon="6.63856">
        <ele>164.85</ele>
        <time>2018-02-20T14:20:19.000Z</time>
      </trkpt>
      <trkpt lat="49.2162" lon="6.63859">
        <ele>168.01</ele>
        <time>2018-02-20T14:20:29.000Z</time>
      </trkpt>
      <trkpt lat="49.21606" lon="6.63865">
        <ele>174.87</ele>
        <time>2018-02-20T14:20:39.000Z</time>
      </trkpt>
      <trkpt lat="49.21591" lon="6.63875">
        <ele>175.39</ele>
        <time>2018-02-20T14:20:49.000Z</time>
      </trkpt>
      <trkpt lat="49.21578" lon="6.63881">
        <ele>176.88</ele>
        <time>2018-02-20T14:20:59.000Z</time>
      </trkpt>
      <trkpt lat="49.21564" lon="6.63889">
        <ele>179</ele>
        <time>2018-02-20T14:21:09.000Z</time>
      </trkpt>
      <trkpt lat="49.2155" lon="6.63893">
        <ele>179.61</ele>
        <time>2018-02-20T14:21:19.000Z</time>
      </trkpt>
      <trkpt lat="49.21538" lon="6.63898">
        <ele>182.81</ele>
        <time>2018-02-20T14:21:29.000Z</time>
      </trkpt>
      <trkpt lat="49.21525" lon="6.63902">
        <ele>186.66</ele>
        <time>2018-02-20T14:21:39.000Z</time>
      </trkpt>
      <trkpt lat="49.21512" lon="6.63903">
        <ele>190.17</ele>
        <time>2018-02-20T14:21:49.000Z</time>
      </trkpt>
      <trkpt lat="49.21499" lon="6.639">
        <ele>189.26</ele>
        <time>2018-02-20T14:21:59.000Z</time>
      </trkpt>
      <trkpt lat="49.21485" lon="6.63896">
        <ele>188.45</ele>
        <time>2018-02-20T14:22:09.000Z</time>
      </trkpt>
      <trkpt lat="49.21472" lon="6.63896">
        <ele>185.28</ele>
        <time>2018-02-20T14:22:19.000Z</time>
      </trkpt>
      <trkpt lat="49.21457" lon="6.63895">
        <ele>183.31</ele>
        <time>2018-02-20T14:22:29.000Z</time>
      </trkpt>
      <trkpt lat="49.21443" lon="6.63899">
        <ele>183.61</ele>
        <time>2018-02-20T14:22:39.000Z</time>
      </trkpt>
      <trkpt lat="49.21428" lon="6.639">
        <ele>188.46</ele>
        <time>2018-02-20T14:22:49.000Z</time>
      </trkpt>
      <trkpt lat="49.21414" lon="6.63899">
        <ele>189.64</ele>
        <time>2018-02-20T14:22:59.000Z</time>
      </trkpt>
      <trkpt lat="49.214" lon="6.63898">
        <ele>194.4</ele>
        <time>2018-02-20T14:23:09.000Z</time>
      </trkpt>
      <trkpt lat="49.21386" lon="6.63891">
        <ele>195.42</ele>
        <time>2018-02-20T14:23:19.000Z</time>
      </trkpt>
      <trkpt lat="49.21371" lon="6.63884">
        <ele>195.1</ele>
        <time>2018-02-20T14:23:29.000Z</time>
      </trkpt>
      <trkpt lat="49.21359" lon="6.63879">
        <ele>194.37</ele>
        <time>2018-02-20T14:23:39.000Z</time>
      </trkpt>
      <trkpt lat="49.21347" lon="6.63874">
        <ele>193.75</ele>
        <time>2018-02-20T14:23:49.000Z</time>
      </trkpt>
      <trkpt lat="49.21336" lon="6.63869">
        <ele>191.2</ele>
        <time>2018-02-20T14:23:59.000Z</time>
      </trkpt>
      <trkpt lat="49.21324" lon="6.63864">
        <ele>188.16</ele>
        <time>2018-02-20T14:24:09.000Z</time>
      </trkpt>
      <trkpt lat="49.21314" lon="6.63862">
        <ele>187.81</ele>
        <time>2018-02-20T14:24:19.000Z</time>
      </trkpt>
      <trkpt lat="49.21301" lon="6.63851">
        <ele>186.42</ele>
        <time>2018-02-20T14:24:29.000Z</time>
      </trkpt>
      <trkpt lat="49.2129" lon="6.63842">
        <ele>190.93</ele>
        <time>2018-02-20T14:24:39.000Z</time>
      </trkpt>
      <trkpt lat="49.21279" lon="6.63828">
        <ele>186.82</ele>
        <time>2018-02-20T14:24:49.000Z</time>
      </trkpt>
      <trkpt lat="49.21267" lon="6.63817">
        <ele>191.23</ele>
        <time>2018-02-20T14:24:59.000Z</time>
      </trkpt>
      <trkpt lat="49.21255" lon="6.63805">
        <ele>195.13</ele>
        <time>2018-02-20T14:25:09.000Z</time>
      </trkpt>
      <trkpt lat="49.21244" lon="6.63796">
        <ele>197.05</ele>
        <time>2018-02-20T14:25:19.000Z</time>
      </trkpt>
      <trkpt lat="49.2123" lon="6.63788">
        <ele>202.6</ele>
        <time>2018-02-20T14:25:29.000Z</time>
      </trkpt>
      <trkpt lat="49.21219" lon="6.6379">
        <ele>206.46</ele>
        <time>2018-02-20T14:25:39.000Z</time>
      </trkpt>
      <trkpt lat="49.21209" lon="6.63793">
        <ele>207.98</ele>
        <time>2018-02-20T14:25:49.000Z</time>
      </trkpt>
      <trkpt lat="49.21199" lon="6.638">
        <ele>208.35</ele>
        <time>2018-02-20T14:25:59.000Z</time>
      </trkpt>
      <trkpt lat="49.2119" lon="6.6381">
        <ele>206.45</ele>
        <time>2018-02-20T14:26:09.000Z</time>
      </trkpt>
      <trkpt lat="49.21184" lon="6.6382">
        <ele>206.78</ele>
        <time>2018-02-20T14:26:19.000Z</time>
      </trkpt>
      <trkpt lat="49.21179" lon="6.6383">
        <ele>209.71</ele>
        <time>2018-02-20T14:26:29.000Z</time>
      </trkpt>
      <trkpt lat="49.21172" lon="6.63842">
        <ele>212.4</ele>
        <time>2018-02-20T14:26:39.000Z</time>
      </trkpt>
      <trkpt lat="49.21167" lon="6.63848">
        <ele>213.76</ele>
        <time>2018-02-20T14:26:49.000Z</time>
      </trkpt>
      <trkpt lat="49.21157" lon="6.63855">
        <ele>213.31</ele>
        <time>2018-02-20T14:26:59.000Z</time>
      </trkpt>
      <trkpt lat="49.21148" lon="6.63864">
        <ele>215.51</ele>
        <time>2018-02-20T14:27:09.000Z</time>
      </trkpt>
      <trkpt lat="49.2114" lon="6.63872">
        <ele>213.29</ele>
        <time>2018-02-20T14:27:19.000Z</time>
      </trkpt>
      <trkpt lat="49.21131" lon="6.6388">
        <ele>214.73</ele>
        <time>2018-02-20T14:27:29.000Z</time>
      </trkpt>
      <trkpt lat="49.21122" lon="6.63885">
        <ele>214.71</ele>
        <time>2018-02-20T14:27:39.000Z</time>
      </trkpt>
      <trkpt lat="49.21117" lon="6.6389">
        <ele>212.42</ele>
        <time>2018-02-20T14:27:49.000Z</time>
      </trkpt>
      <trkpt lat="49.21111" lon="6.63891">
        <ele>215.58</ele>
        <time>2018-02-20T14:27:59.000Z</time>
      </trkpt>
      <trkpt lat="49.21107" lon="6.63899">
        <ele>220.38</ele>
        <time>2018-02-20T14:28:30.000Z</time>
      </trkpt>
      <trkpt lat="49.21102" lon="6.63902">
        <ele>221.65</ele>
        <time>2018-02-20T14:28:40.000Z</time>
      </trkpt>
      <trkpt lat="49.21097" lon="6.63909">
        <ele>214.04</ele>
        <time>2018-02-20T14:28:50.000Z</time>
      </trkpt>
      <trkpt lat="49.21091" lon="6.63919">
        <ele>218.35</ele>
        <time>2018-02-20T14:29:00.000Z</time>
      </trkpt>
      <trkpt lat="49.21083" lon="6.63928">
        <ele>219.05</ele>
        <time>2018-02-20T14:29:10.000Z</time>
      </trkpt>
      <trkpt lat="49.21073" lon="6.63936">
        <ele>217.99</ele>
        <time>2018-02-20T14:29:20.000Z</time>
      </trkpt>
      <trkpt lat="49.21061" lon="6.63936">
        <ele>217.75</ele>
        <time>2018-02-20T14:29:30.000Z</time>
      </trkpt>
      <trkpt lat="49.21051" lon="6.63932">
        <ele>218.79</ele>
        <time>2018-02-20T14:29:40.000Z</time>
      </trkpt>
      <trkpt lat="49.21041" lon="6.63932">
        <ele>219.03</ele>
        <time>2018-02-20T14:29:50.000Z</time>
      </trkpt>
      <trkpt lat="49.21031" lon="6.63931">
        <ele>221.5</ele>
        <time>2018-02-20T14:30:08.000Z</time>
      </trkpt>
      <trkpt lat="49.21029" lon="6.6393">
        <ele>222.58</ele>
        <time>2018-02-20T14:30:18.000Z</time>
      </trkpt>
      <trkpt lat="49.2103" lon="6.63925">
        <ele>220.93</ele>
        <time>2018-02-20T14:30:32.000Z</time>
      </trkpt>
      <trkpt lat="49.21033" lon="6.63933">
        <ele>219.98</ele>
        <time>2018-02-20T14:31:01.000Z</time>
      </trkpt>
      <trkpt lat="49.21039" lon="6.63938">
        <ele>222.43</ele>
        <time>2018-02-20T14:31:11.000Z</time>
      </trkpt>
      <trkpt lat="49.21032" lon="6.63952">
        <ele>237.94</ele>
        <time>2018-02-20T14:31:21.000Z</time>
      </trkpt>
      <trkpt lat="49.21025" lon="6.63963">
        <ele>241.93</ele>
        <time>2018-02-20T14:31:31.000Z</time>
      </trkpt>
      <trkpt lat="49.21015" lon="6.63965">
        <ele>230.7</ele>
        <time>2018-02-20T14:31:41.000Z</time>
      </trkpt>
      <trkpt lat="49.21006" lon="6.63964">
        <ele>231.23</ele>
        <time>2018-02-20T14:31:51.000Z</time>
      </trkpt>
      <trkpt lat="49.20998" lon="6.63957">
        <ele>239.09</ele>
        <time>2018-02-20T14:32:01.000Z</time>
      </trkpt>
      <trkpt lat="49.20988" lon="6.63947">
        <ele>242.62</ele>
        <time>2018-02-20T14:32:11.000Z</time>
      </trkpt>
      <trkpt lat="49.20982" lon="6.63942">
        <ele>245.54</ele>
        <time>2018-02-20T14:32:21.000Z</time>
      </trkpt>
      <trkpt lat="49.2098" lon="6.6394">
        <ele>247.08</ele>
        <time>2018-02-20T14:32:31.000Z</time>
      </trkpt>
      <trkpt lat="49.20975" lon="6.63936">
        <ele>250.38</ele>
        <time>2018-02-20T14:32:42.000Z</time>
      </trkpt>
      <trkpt lat="49.20971" lon="6.63931">
        <ele>249.25</ele>
        <time>2018-02-20T14:32:52.000Z</time>
      </trkpt>
      <trkpt lat="49.20965" lon="6.63928">
        <ele>242.47</ele>
        <time>2018-02-20T14:33:02.000Z</time>
      </trkpt>
      <trkpt lat="49.20955" lon="6.63915">
        <ele>235.98</ele>
        <time>2018-02-20T14:33:12.000Z</time>
      </trkpt>
      <trkpt lat="49.20942" lon="6.63896">
        <ele>250.31</ele>
        <time>2018-02-20T14:33:22.000Z</time>
      </trkpt>
      <trkpt lat="49.20938" lon="6.63884">
        <ele>250.57</ele>
        <time>2018-02-20T14:33:32.000Z</time>
      </trkpt>
      <trkpt lat="49.20936" lon="6.63877">
        <ele>250.48</ele>
        <time>2018-02-20T14:33:42.000Z</time>
      </trkpt>
      <trkpt lat="49.20933" lon="6.63864">
        <ele>253.03</ele>
        <time>2018-02-20T14:34:05.000Z</time>
      </trkpt>
      <trkpt lat="49.20931" lon="6.63863">
        <ele>255.05</ele>
        <time>2018-02-20T14:35:05.000Z</time>
      </trkpt>
      <trkpt lat="49.20933" lon="6.63852">
        <ele>246.1</ele>
        <time>2018-02-20T14:35:15.000Z</time>
      </trkpt>
      <trkpt lat="49.20934" lon="6.63837">
        <ele>231.66</ele>
        <time>2018-02-20T14:35:25.000Z</time>
      </trkpt>
      <trkpt lat="49.20931" lon="6.63821">
        <ele>234.2</ele>
        <time>2018-02-20T14:35:35.000Z</time>
      </trkpt>
      <trkpt lat="49.20929" lon="6.63804">
        <ele>238.55</ele>
        <time>2018-02-20T14:35:45.000Z</time>
      </trkpt>
      <trkpt lat="49.20927" lon="6.63783">
        <ele>244.03</ele>
        <time>2018-02-20T14:35:55.000Z</time>
      </trkpt>
      <trkpt lat="49.20926" lon="6.63768">
        <ele>248.86</ele>
        <time>2018-02-20T14:36:05.000Z</time>
      </trkpt>
      <trkpt lat="49.20924" lon="6.63753">
        <ele>251.18</ele>
        <time>2018-02-20T14:36:15.000Z</time>
      </trkpt>
      <trkpt lat="49.20922" lon="6.63748">
        <ele>252.28</ele>
        <time>2018-02-20T14:36:25.000Z</time>
      </trkpt>
      <trkpt lat="49.20916" lon="6.63735">
        <ele>259.18</ele>
        <time>2018-02-20T14:36:35.000Z</time>
      </trkpt>
      <trkpt lat="49.20906" lon="6.63722">
        <ele>262.49</ele>
        <time>2018-02-20T14:36:45.000Z</time>
      </trkpt>
      <trkpt lat="49.20898" lon="6.63712">
        <ele>266.73</ele>
        <time>2018-02-20T14:36:55.000Z</time>
      </trkpt>
      <trkpt lat="49.20889" lon="6.63701">
        <ele>263.95</ele>
        <time>2018-02-20T14:37:05.000Z</time>
      </trkpt>
      <trkpt lat="49.20878" lon="6.63691">
        <ele>266.97</ele>
        <time>2018-02-20T14:37:15.000Z</time>
      </trkpt>
      <trkpt lat="49.20868" lon="6.6368">
        <ele>275.4</ele>
        <time>2018-02-20T14:37:25.000Z</time>
      </trkpt>
      <trkpt lat="49.20856" lon="6.63671">
        <ele>276.82</ele>
        <time>2018-02-20T14:37:35.000Z</time>
      </trkpt>
      <trkpt lat="49.20851" lon="6.63662">
        <ele>275.65</ele>
        <time>2018-02-20T14:37:45.000Z</time>
      </trkpt>
      <trkpt lat="49.20846" lon="6.63654">
        <ele>277.57</ele>
        <time>2018-02-20T14:37:55.000Z</time>
      </trkpt>
      <trkpt lat="49.20836" lon="6.63642">
        <ele>275.47</ele>
        <time>2018-02-20T14:38:05.000Z</time>
      </trkpt>
      <trkpt lat="49.20827" lon="6.63635">
        <ele>273.93</ele>
        <time>2018-02-20T14:38:16.000Z</time>
      </trkpt>
      <trkpt lat="49.20824" lon="6.63628">
        <ele>278.68</ele>
        <time>2018-02-20T14:38:26.000Z</time>
      </trkpt>
      <trkpt lat="49.20809" lon="6.63605">
        <ele>267.48</ele>
        <time>2018-02-20T14:38:36.000Z</time>
      </trkpt>
      <trkpt lat="49.20797" lon="6.63574">
        <ele>258.63</ele>
        <time>2018-02-20T14:38:46.000Z</time>
      </trkpt>
      <trkpt lat="49.20793" lon="6.63552">
        <ele>251.36</ele>
        <time>2018-02-20T14:38:56.000Z</time>
      </trkpt>
      <trkpt lat="49.2079" lon="6.63526">
        <ele>247.87</ele>
        <time>2018-02-20T14:39:06.000Z</time>
      </trkpt>
      <trkpt lat="49.20787" lon="6.63507">
        <ele>243.85</ele>
        <time>2018-02-20T14:39:16.000Z</time>
      </trkpt>
      <trkpt lat="49.20787" lon="6.63492">
        <ele>244.46</ele>
        <time>2018-02-20T14:39:26.000Z</time>
      </trkpt>
      <trkpt lat="49.20786" lon="6.63474">
        <ele>245.2</ele>
        <time>2018-02-20T14:39:36.000Z</time>
      </trkpt>
      <trkpt lat="49.2078" lon="6.63442">
        <ele>249.52</ele>
        <time>2018-02-20T14:39:46.000Z</time>
      </trkpt>
      <trkpt lat="49.20777" lon="6.63417">
        <ele>253.11</ele>
        <time>2018-02-20T14:39:56.000Z</time>
      </trkpt>
      <trkpt lat="49.20774" lon="6.63395">
        <ele>256.06</ele>
        <time>2018-02-20T14:40:06.000Z</time>
      </trkpt>
      <trkpt lat="49.20772" lon="6.63372">
        <ele>256.71</ele>
        <time>2018-02-20T14:40:16.000Z</time>
      </trkpt>
      <trkpt lat="49.20763" lon="6.63349">
        <ele>255.93</ele>
        <time>2018-02-20T14:40:26.000Z</time>
      </trkpt>
      <trkpt lat="49.20761" lon="6.6333">
        <ele>257.82</ele>
        <time>2018-02-20T14:40:36.000Z</time>
      </trkpt>
      <trkpt lat="49.20759" lon="6.63314">
        <ele>256.79</ele>
        <time>2018-02-20T14:40:46.000Z</time>
      </trkpt>
      <trkpt lat="49.20752" lon="6.63292">
        <ele>253.8</ele>
        <time>2018-02-20T14:40:56.000Z</time>
      </trkpt>
      <trkpt lat="49.20742" lon="6.63269">
        <ele>255.13</ele>
        <time>2018-02-20T14:41:06.000Z</time>
      </trkpt>
      <trkpt lat="49.20735" lon="6.63249">
        <ele>254.22</ele>
        <time>2018-02-20T14:41:16.000Z</time>
      </trkpt>
      <trkpt lat="49.20729" lon="6.63233">
        <ele>255.28</ele>
        <time>2018-02-20T14:41:26.000Z</time>
      </trkpt>
      <trkpt lat="49.20724" lon="6.63218">
        <ele>258.83</ele>
        <time>2018-02-20T14:41:36.000Z</time>
      </trkpt>
      <trkpt lat="49.20717" lon="6.63203">
        <ele>257.56</ele>
        <time>2018-02-20T14:41:46.000Z</time>
      </trkpt>
      <trkpt lat="49.2071" lon="6.6319">
        <ele>257.8</ele>
        <time>2018-02-20T14:41:56.000Z</time>
      </trkpt>
      <trkpt lat="49.20703" lon="6.63172">
        <ele>255.95</ele>
        <time>2018-02-20T14:42:06.000Z</time>
      </trkpt>
      <trkpt lat="49.20695" lon="6.63159">
        <ele>250</ele>
        <time>2018-02-20T14:42:16.000Z</time>
      </trkpt>
      <trkpt lat="49.20685" lon="6.63148">
        <ele>250.27</ele>
        <time>2018-02-20T14:42:26.000Z</time>
      </trkpt>
      <trkpt lat="49.20672" lon="6.63136">
        <ele>250.45</ele>
        <time>2018-02-20T14:42:36.000Z</time>
      </trkpt>
      <trkpt lat="49.2066" lon="6.63127">
        <ele>244.19</ele>
        <time>2018-02-20T14:42:46.000Z</time>
      </trkpt>
      <trkpt lat="49.20643" lon="6.63119">
        <ele>238.03</ele>
        <time>2018-02-20T14:42:56.000Z</time>
      </trkpt>
      <trkpt lat="49.20632" lon="6.63111">
        <ele>239.82</ele>
        <time>2018-02-20T14:43:06.000Z</time>
      </trkpt>
      <trkpt lat="49.20618" lon="6.63104">
        <ele>246.34</ele>
        <time>2018-02-20T14:43:16.000Z</time>
      </trkpt>
      <trkpt lat="49.20605" lon="6.63095">
        <ele>249.59</ele>
        <time>2018-02-20T14:43:26.000Z</time>
      </trkpt>
      <trkpt lat="49.20593" lon="6.63088">
        <ele>251.81</ele>
        <time>2018-02-20T14:43:36.000Z</time>
      </trkpt>
      <trkpt lat="49.20581" lon="6.63079">
        <ele>253.34</ele>
        <time>2018-02-20T14:43:46.000Z</time>
      </trkpt>
      <trkpt lat="49.20578" lon="6.63076">
        <ele>253.79</ele>
        <time>2018-02-20T14:43:56.000Z</time>
      </trkpt>
      <trkpt lat="49.20576" lon="6.63075">
        <ele>254.02</ele>
        <time>2018-02-20T14:44:09.000Z</time>
      </trkpt>
      <trkpt lat="49.20566" lon="6.63069">
        <ele>252.43</ele>
        <time>2018-02-20T14:44:19.000Z</time>
      </trkpt>
      <trkpt lat="49.20554" lon="6.63059">
        <ele>252.74</ele>
        <time>2018-02-20T14:44:29.000Z</time>
      </trkpt>
      <trkpt lat="49.20541" lon="6.6305">
        <ele>253.46</ele>
        <time>2018-02-20T14:44:39.000Z</time>
      </trkpt>
      <trkpt lat="49.20529" lon="6.63038">
        <ele>254.47</ele>
        <time>2018-02-20T14:44:49.000Z</time>
      </trkpt>
      <trkpt lat="49.20515" lon="6.63029">
        <ele>255.52</ele>
        <time>2018-02-20T14:44:59.000Z</time>
      </trkpt>
      <trkpt lat="49.20504" lon="6.63022">
        <ele>254.91</ele>
        <time>2018-02-20T14:45:09.000Z</time>
      </trkpt>
      <trkpt lat="49.20491" lon="6.63016">
        <ele>253.82</ele>
        <time>2018-02-20T14:45:19.000Z</time>
      </trkpt>
      <trkpt lat="49.2048" lon="6.63005">
        <ele>254.42</ele>
        <time>2018-02-20T14:45:29.000Z</time>
      </trkpt>
      <trkpt lat="49.20467" lon="6.62998">
        <ele>254.78</ele>
        <time>2018-02-20T14:45:39.000Z</time>
      </trkpt>
      <trkpt lat="49.20455" lon="6.62987">
        <ele>256.97</ele>
        <time>2018-02-20T14:45:49.000Z</time>
      </trkpt>
      <trkpt lat="49.20442" lon="6.62976">
        <ele>258.88</ele>
        <time>2018-02-20T14:45:59.000Z</time>
      </trkpt>
      <trkpt lat="49.2043" lon="6.62969">
        <ele>256.87</ele>
        <time>2018-02-20T14:46:09.000Z</time>
      </trkpt>
      <trkpt lat="49.20417" lon="6.62961">
        <ele>254.96</ele>
        <time>2018-02-20T14:46:19.000Z</time>
      </trkpt>
      <trkpt lat="49.20404" lon="6.62954">
        <ele>254.33</ele>
        <time>2018-02-20T14:46:29.000Z</time>
      </trkpt>
      <trkpt lat="49.20393" lon="6.62946">
        <ele>253.11</ele>
        <time>2018-02-20T14:46:39.000Z</time>
      </trkpt>
      <trkpt lat="49.20381" lon="6.62933">
        <ele>255.83</ele>
        <time>2018-02-20T14:46:49.000Z</time>
      </trkpt>
      <trkpt lat="49.20369" lon="6.62922">
        <ele>258.11</ele>
        <time>2018-02-20T14:46:59.000Z</time>
      </trkpt>
      <trkpt lat="49.20356" lon="6.62909">
        <ele>264.13</ele>
        <time>2018-02-20T14:47:09.000Z</time>
      </trkpt>
      <trkpt lat="49.20342" lon="6.62899">
        <ele>265.86</ele>
        <time>2018-02-20T14:47:19.000Z</time>
      </trkpt>
      <trkpt lat="49.20329" lon="6.62889">
        <ele>263.95</ele>
        <time>2018-02-20T14:47:29.000Z</time>
      </trkpt>
      <trkpt lat="49.20317" lon="6.6288">
        <ele>264.54</ele>
        <time>2018-02-20T14:47:39.000Z</time>
      </trkpt>
      <trkpt lat="49.20304" lon="6.62873">
        <ele>263.8</ele>
        <time>2018-02-20T14:47:49.000Z</time>
      </trkpt>
      <trkpt lat="49.20293" lon="6.62865">
        <ele>261.87</ele>
        <time>2018-02-20T14:47:59.000Z</time>
      </trkpt>
      <trkpt lat="49.20281" lon="6.62856">
        <ele>261.58</ele>
        <time>2018-02-20T14:48:09.000Z</time>
      </trkpt>
      <trkpt lat="49.20271" lon="6.6285">
        <ele>259.76</ele>
        <time>2018-02-20T14:48:19.000Z</time>
      </trkpt>
      <trkpt lat="49.20257" lon="6.62842">
        <ele>260.21</ele>
        <time>2018-02-20T14:48:29.000Z</time>
      </trkpt>
      <trkpt lat="49.20245" lon="6.62833">
        <ele>259.66</ele>
        <time>2018-02-20T14:48:39.000Z</time>
      </trkpt>
      <trkpt lat="49.20232" lon="6.62822">
        <ele>260.34</ele>
        <time>2018-02-20T14:48:49.000Z</time>
      </trkpt>
      <trkpt lat="49.20219" lon="6.62811">
        <ele>261.44</ele>
        <time>2018-02-20T14:48:59.000Z</time>
      </trkpt>
      <trkpt lat="49.20208" lon="6.62802">
        <ele>261.64</ele>
        <time>2018-02-20T14:49:09.000Z</time>
      </trkpt>
      <trkpt lat="49.20197" lon="6.62791">
        <ele>261.59</ele>
        <time>2018-02-20T14:49:19.000Z</time>
      </trkpt>
      <trkpt lat="49.20184" lon="6.62781">
        <ele>260.22</ele>
        <time>2018-02-20T14:49:29.000Z</time>
      </trkpt>
      <trkpt lat="49.20172" lon="6.62769">
        <ele>261.55</ele>
        <time>2018-02-20T14:49:39.000Z</time>
      </trkpt>
      <trkpt lat="49.2016" lon="6.62759">
        <ele>262.56</ele>
        <time>2018-02-20T14:49:49.000Z</time>
      </trkpt>
      <trkpt lat="49.20147" lon="6.62749">
        <ele>264</ele>
        <time>2018-02-20T14:49:59.000Z</time>
      </trkpt>
      <trkpt lat="49.20135" lon="6.62739">
        <ele>265.97</ele>
        <time>2018-02-20T14:50:09.000Z</time>
      </trkpt>
      <trkpt lat="49.20124" lon="6.62726">
        <ele>268.36</ele>
        <time>2018-02-20T14:50:19.000Z</time>
      </trkpt>
      <trkpt lat="49.20112" lon="6.62715">
        <ele>272.04</ele>
        <time>2018-02-20T14:50:29.000Z</time>
      </trkpt>
      <trkpt lat="49.20099" lon="6.62708">
        <ele>272.34</ele>
        <time>2018-02-20T14:50:39.000Z</time>
      </trkpt>
      <trkpt lat="49.20088" lon="6.62697">
        <ele>273.19</ele>
        <time>2018-02-20T14:50:49.000Z</time>
      </trkpt>
      <trkpt lat="49.20076" lon="6.62689">
        <ele>271.3</ele>
        <time>2018-02-20T14:50:59.000Z</time>
      </trkpt>
      <trkpt lat="49.20062" lon="6.62676">
        <ele>270.01</ele>
        <time>2018-02-20T14:51:09.000Z</time>
      </trkpt>
      <trkpt lat="49.2005" lon="6.62664">
        <ele>271.22</ele>
        <time>2018-02-20T14:51:19.000Z</time>
      </trkpt>
      <trkpt lat="49.20039" lon="6.62652">
        <ele>273</ele>
        <time>2018-02-20T14:51:29.000Z</time>
      </trkpt>
      <trkpt lat="49.20027" lon="6.62642">
        <ele>273.26</ele>
        <time>2018-02-20T14:51:39.000Z</time>
      </trkpt>
      <trkpt lat="49.20016" lon="6.62634">
        <ele>270.94</ele>
        <time>2018-02-20T14:51:49.000Z</time>
      </trkpt>
      <trkpt lat="49.20003" lon="6.62625">
        <ele>270.56</ele>
        <time>2018-02-20T14:51:59.000Z</time>
      </trkpt>
      <trkpt lat="49.19992" lon="6.62615">
        <ele>271.14</ele>
        <time>2018-02-20T14:52:09.000Z</time>
      </trkpt>
      <trkpt lat="49.1998" lon="6.626">
        <ele>273.04</ele>
        <time>2018-02-20T14:52:19.000Z</time>
      </trkpt>
      <trkpt lat="49.19968" lon="6.6259">
        <ele>272.16</ele>
        <time>2018-02-20T14:52:29.000Z</time>
      </trkpt>
      <trkpt lat="49.19955" lon="6.6258">
        <ele>271.45</ele>
        <time>2018-02-20T14:52:39.000Z</time>
      </trkpt>
      <trkpt lat="49.19943" lon="6.62571">
        <ele>271.07</ele>
        <time>2018-02-20T14:52:49.000Z</time>
      </trkpt>
      <trkpt lat="49.19931" lon="6.62562">
        <ele>271.19</ele>
        <time>2018-02-20T14:52:59.000Z</time>
      </trkpt>
      <trkpt lat="49.19919" lon="6.62552">
        <ele>271.53</ele>
        <time>2018-02-20T14:53:09.000Z</time>
      </trkpt>
      <trkpt lat="49.19908" lon="6.62542">
        <ele>270.86</ele>
        <time>2018-02-20T14:53:19.000Z</time>
      </trkpt>
      <trkpt lat="49.19897" lon="6.62533">
        <ele>271.14</ele>
        <time>2018-02-20T14:53:29.000Z</time>
      </trkpt>
      <trkpt lat="49.19892" lon="6.62533">
        <ele>268.52</ele>
        <time>2018-02-20T14:53:39.000Z</time>
      </trkpt>
      <trkpt lat="49.19896" lon="6.6254">
        <ele>265.09</ele>
        <time>2018-02-20T14:53:49.000Z</time>
      </trkpt>
      <trkpt lat="49.19901" lon="6.62557">
        <ele>257.49</ele>
        <time>2018-02-20T14:53:59.000Z</time>
      </trkpt>
      <trkpt lat="49.19907" lon="6.62577">
        <ele>248.41</ele>
        <time>2018-02-20T14:54:09.000Z</time>
      </trkpt>
      <trkpt lat="49.19911" lon="6.62594">
        <ele>244.61</ele>
        <time>2018-02-20T14:54:19.000Z</time>
      </trkpt>
      <trkpt lat="49.1992" lon="6.6261">
        <ele>240.53</ele>
        <time>2018-02-20T14:54:29.000Z</time>
      </trkpt>
      <trkpt lat="49.19921" lon="6.62624">
        <ele>243.29</ele>
        <time>2018-02-20T14:54:39.000Z</time>
      </trkpt>
      <trkpt lat="49.19917" lon="6.62638">
        <ele>250.95</ele>
        <time>2018-02-20T14:54:54.000Z</time>
      </trkpt>
      <trkpt lat="49.19917" lon="6.62639">
        <ele>255.2</ele>
        <time>2018-02-20T14:55:04.000Z</time>
      </trkpt>
      <trkpt lat="49.19919" lon="6.62642">
        <ele>253.25</ele>
        <time>2018-02-20T14:55:38.000Z</time>
      </trkpt>
      <trkpt lat="49.19925" lon="6.62657">
        <ele>253.5</ele>
        <time>2018-02-20T14:55:48.000Z</time>
      </trkpt>
      <trkpt lat="49.19936" lon="6.6267">
        <ele>249.12</ele>
        <time>2018-02-20T14:55:58.000Z</time>
      </trkpt>
      <trkpt lat="49.19945" lon="6.62687">
        <ele>247.33</ele>
        <time>2018-02-20T14:56:08.000Z</time>
      </trkpt>
      <trkpt lat="49.19949" lon="6.62712">
        <ele>249.92</ele>
        <time>2018-02-20T14:56:18.000Z</time>
      </trkpt>
      <trkpt lat="49.19952" lon="6.62735">
        <ele>252.16</ele>
        <time>2018-02-20T14:56:28.000Z</time>
      </trkpt>
      <trkpt lat="49.19954" lon="6.62754">
        <ele>250.44</ele>
        <time>2018-02-20T14:56:38.000Z</time>
      </trkpt>
      <trkpt lat="49.19955" lon="6.62779">
        <ele>251.16</ele>
        <time>2018-02-20T14:56:48.000Z</time>
      </trkpt>
      <trkpt lat="49.19955" lon="6.628">
        <ele>253.42</ele>
        <time>2018-02-20T14:56:58.000Z</time>
      </trkpt>
      <trkpt lat="49.19956" lon="6.62823">
        <ele>252.76</ele>
        <time>2018-02-20T14:57:08.000Z</time>
      </trkpt>
      <trkpt lat="49.19958" lon="6.62845">
        <ele>249.95</ele>
        <time>2018-02-20T14:57:18.000Z</time>
      </trkpt>
      <trkpt lat="49.19962" lon="6.62864">
        <ele>250.68</ele>
        <time>2018-02-20T14:57:28.000Z</time>
      </trkpt>
      <trkpt lat="49.19965" lon="6.62881">
        <ele>250.37</ele>
        <time>2018-02-20T14:57:38.000Z</time>
      </trkpt>
      <trkpt lat="49.1997" lon="6.62904">
        <ele>248.12</ele>
        <time>2018-02-20T14:57:48.000Z</time>
      </trkpt>
      <trkpt lat="49.19974" lon="6.62923">
        <ele>246.65</ele>
        <time>2018-02-20T14:57:58.000Z</time>
      </trkpt>
      <trkpt lat="49.19977" lon="6.62941">
        <ele>243.73</ele>
        <time>2018-02-20T14:58:08.000Z</time>
      </trkpt>
      <trkpt lat="49.19985" lon="6.62962">
        <ele>244.97</ele>
        <time>2018-02-20T14:58:18.000Z</time>
      </trkpt>
      <trkpt lat="49.19988" lon="6.62984">
        <ele>243.78</ele>
        <time>2018-02-20T14:58:28.000Z</time>
      </trkpt>
      <trkpt lat="49.19993" lon="6.63002">
        <ele>243.3</ele>
        <time>2018-02-20T14:58:38.000Z</time>
      </trkpt>
      <trkpt lat="49.19997" lon="6.63018">
        <ele>241.27</ele>
        <time>2018-02-20T14:58:48.000Z</time>
      </trkpt>
      <trkpt lat="49.20002" lon="6.63039">
        <ele>238.26</ele>
        <time>2018-02-20T14:58:58.000Z</time>
      </trkpt>
      <trkpt lat="49.20006" lon="6.6306">
        <ele>238.21</ele>
        <time>2018-02-20T14:59:08.000Z</time>
      </trkpt>
      <trkpt lat="49.2001" lon="6.63079">
        <ele>233.47</ele>
        <time>2018-02-20T14:59:18.000Z</time>
      </trkpt>
      <trkpt lat="49.20014" lon="6.63099">
        <ele>231.35</ele>
        <time>2018-02-20T14:59:28.000Z</time>
      </trkpt>
      <trkpt lat="49.20022" lon="6.63116">
        <ele>232.86</ele>
        <time>2018-02-20T14:59:38.000Z</time>
      </trkpt>
      <trkpt lat="49.20029" lon="6.63132">
        <ele>233.17</ele>
        <time>2018-02-20T14:59:48.000Z</time>
      </trkpt>
      <trkpt lat="49.20032" lon="6.6315">
        <ele>232.1</ele>
        <time>2018-02-20T14:59:58.000Z</time>
      </trkpt>
      <trkpt lat="49.20034" lon="6.63175">
        <ele>230.93</ele>
        <time>2018-02-20T15:00:08.000Z</time>
      </trkpt>
      <trkpt lat="49.20033" lon="6.63202">
        <ele>231.76</ele>
        <time>2018-02-20T15:00:18.000Z</time>
      </trkpt>
      <trkpt lat="49.20038" lon="6.63219">
        <ele>234.89</ele>
        <time>2018-02-20T15:00:28.000Z</time>
      </trkpt>
      <trkpt lat="49.20043" lon="6.63247">
        <ele>237.99</ele>
        <time>2018-02-20T15:00:38.000Z</time>
      </trkpt>
      <trkpt lat="49.2005" lon="6.63269">
        <ele>241.16</ele>
        <time>2018-02-20T15:00:48.000Z</time>
      </trkpt>
      <trkpt lat="49.20052" lon="6.63283">
        <ele>241.54</ele>
        <time>2018-02-20T15:00:58.000Z</time>
      </trkpt>
      <trkpt lat="49.20046" lon="6.63294">
        <ele>239.24</ele>
        <time>2018-02-20T15:01:08.000Z</time>
      </trkpt>
      <trkpt lat="49.2004" lon="6.63304">
        <ele>243.55</ele>
        <time>2018-02-20T15:01:18.000Z</time>
      </trkpt>
      <trkpt lat="49.20041" lon="6.63303">
        <ele>243.66</ele>
        <time>2018-02-20T15:01:31.000Z</time>
      </trkpt>
      <trkpt lat="49.20044" lon="6.63302">
        <ele>239.96</ele>
        <time>2018-02-20T15:01:41.000Z</time>
      </trkpt>
      <trkpt lat="49.20047" lon="6.63304">
        <ele>232.24</ele>
        <time>2018-02-20T15:02:23.000Z</time>
      </trkpt>
      <trkpt lat="49.20049" lon="6.63304">
        <ele>226.49</ele>
        <time>2018-02-20T15:02:33.000Z</time>
      </trkpt>
      <trkpt lat="49.20042" lon="6.63303">
        <ele>231.56</ele>
        <time>2018-02-20T15:02:43.000Z</time>
      </trkpt>
      <trkpt lat="49.20033" lon="6.63298">
        <ele>238.4</ele>
        <time>2018-02-20T15:02:53.000Z</time>
      </trkpt>
      <trkpt lat="49.20029" lon="6.63287">
        <ele>243.36</ele>
        <time>2018-02-20T15:03:03.000Z</time>
      </trkpt>
      <trkpt lat="49.20025" lon="6.63273">
        <ele>242.54</ele>
        <time>2018-02-20T15:03:13.000Z</time>
      </trkpt>
      <trkpt lat="49.20016" lon="6.63252">
        <ele>238.85</ele>
        <time>2018-02-20T15:03:23.000Z</time>
      </trkpt>
      <trkpt lat="49.20009" lon="6.63229">
        <ele>241.64</ele>
        <time>2018-02-20T15:03:33.000Z</time>
      </trkpt>
      <trkpt lat="49.20001" lon="6.63207">
        <ele>241.56</ele>
        <time>2018-02-20T15:03:43.000Z</time>
      </trkpt>
      <trkpt lat="49.19989" lon="6.63183">
        <ele>244.72</ele>
        <time>2018-02-20T15:03:53.000Z</time>
      </trkpt>
      <trkpt lat="49.19983" lon="6.6316">
        <ele>245.46</ele>
        <time>2018-02-20T15:04:03.000Z</time>
      </trkpt>
      <trkpt lat="49.1998" lon="6.63145">
        <ele>247.36</ele>
        <time>2018-02-20T15:04:13.000Z</time>
      </trkpt>
      <trkpt lat="49.19976" lon="6.63129">
        <ele>245.66</ele>
        <time>2018-02-20T15:04:23.000Z</time>
      </trkpt>
      <trkpt lat="49.19972" lon="6.6311">
        <ele>242.18</ele>
        <time>2018-02-20T15:04:33.000Z</time>
      </trkpt>
      <trkpt lat="49.1997" lon="6.63092">
        <ele>240.72</ele>
        <time>2018-02-20T15:04:43.000Z</time>
      </trkpt>
      <trkpt lat="49.19955" lon="6.63058">
        <ele>248.83</ele>
        <time>2018-02-20T15:04:53.000Z</time>
      </trkpt>
      <trkpt lat="49.19947" lon="6.63042">
        <ele>251.04</ele>
        <time>2018-02-20T15:05:03.000Z</time>
      </trkpt>
      <trkpt lat="49.19941" lon="6.63027">
        <ele>250.22</ele>
        <time>2018-02-20T15:05:13.000Z</time>
      </trkpt>
      <trkpt lat="49.19936" lon="6.63013">
        <ele>249.42</ele>
        <time>2018-02-20T15:05:23.000Z</time>
      </trkpt>
      <trkpt lat="49.1993" lon="6.62995">
        <ele>247.29</ele>
        <time>2018-02-20T15:05:33.000Z</time>
      </trkpt>
      <trkpt lat="49.19927" lon="6.62973">
        <ele>244.8</ele>
        <time>2018-02-20T15:05:43.000Z</time>
      </trkpt>
      <trkpt lat="49.19925" lon="6.62958">
        <ele>239.76</ele>
        <time>2018-02-20T15:05:53.000Z</time>
      </trkpt>
      <trkpt lat="49.19913" lon="6.62935">
        <ele>238.71</ele>
        <time>2018-02-20T15:06:03.000Z</time>
      </trkpt>
      <trkpt lat="49.19908" lon="6.62919">
        <ele>236.62</ele>
        <time>2018-02-20T15:06:13.000Z</time>
      </trkpt>
      <trkpt lat="49.19903" lon="6.62901">
        <ele>235.03</ele>
        <time>2018-02-20T15:06:23.000Z</time>
      </trkpt>
      <trkpt lat="49.19899" lon="6.62887">
        <ele>234.22</ele>
        <time>2018-02-20T15:06:33.000Z</time>
      </trkpt>
      <trkpt lat="49.19892" lon="6.62867">
        <ele>231.79</ele>
        <time>2018-02-20T15:06:43.000Z</time>
      </trkpt>
      <trkpt lat="49.19887" lon="6.62855">
        <ele>229.93</ele>
        <time>2018-02-20T15:06:53.000Z</time>
      </trkpt>
      <trkpt lat="49.19874" lon="6.6283">
        <ele>234.53</ele>
        <time>2018-02-20T15:07:03.000Z</time>
      </trkpt>
      <trkpt lat="49.19863" lon="6.6281">
        <ele>236.65</ele>
        <time>2018-02-20T15:07:13.000Z</time>
      </trkpt>
      <trkpt lat="49.19854" lon="6.62796">
        <ele>233.88</ele>
        <time>2018-02-20T15:07:23.000Z</time>
      </trkpt>
      <trkpt lat="49.19845" lon="6.6278">
        <ele>230.23</ele>
        <time>2018-02-20T15:07:33.000Z</time>
      </trkpt>
      <trkpt lat="49.19836" lon="6.62764">
        <ele>229.56</ele>
        <time>2018-02-20T15:07:43.000Z</time>
      </trkpt>
      <trkpt lat="49.19826" lon="6.62749">
        <ele>229.36</ele>
        <time>2018-02-20T15:07:53.000Z</time>
      </trkpt>
      <trkpt lat="49.19817" lon="6.62741">
        <ele>226.22</ele>
        <time>2018-02-20T15:08:03.000Z</time>
      </trkpt>
      <trkpt lat="49.19799" lon="6.62726">
        <ele>226.44</ele>
        <time>2018-02-20T15:08:13.000Z</time>
      </trkpt>
      <trkpt lat="49.19785" lon="6.62725">
        <ele>231.09</ele>
        <time>2018-02-20T15:08:23.000Z</time>
      </trkpt>
      <trkpt lat="49.19774" lon="6.62724">
        <ele>229.6</ele>
        <time>2018-02-20T15:08:33.000Z</time>
      </trkpt>
      <trkpt lat="49.19763" lon="6.62727">
        <ele>228.65</ele>
        <time>2018-02-20T15:08:43.000Z</time>
      </trkpt>
      <trkpt lat="49.19759" lon="6.62732">
        <ele>233.59</ele>
        <time>2018-02-20T15:08:53.000Z</time>
      </trkpt>
      <trkpt lat="49.19751" lon="6.62753">
        <ele>226.74</ele>
        <time>2018-02-20T15:09:03.000Z</time>
      </trkpt>
      <trkpt lat="49.19748" lon="6.62765">
        <ele>217.17</ele>
        <time>2018-02-20T15:09:13.000Z</time>
      </trkpt>
      <trkpt lat="49.19743" lon="6.62778">
        <ele>208.02</ele>
        <time>2018-02-20T15:09:37.000Z</time>
      </trkpt>
      <trkpt lat="49.19746" lon="6.62781">
        <ele>205.74</ele>
        <time>2018-02-20T15:09:51.000Z</time>
      </trkpt>
      <trkpt lat="49.19745" lon="6.62789">
        <ele>203.32</ele>
        <time>2018-02-20T15:10:01.000Z</time>
      </trkpt>
      <trkpt lat="49.1975" lon="6.628">
        <ele>207.28</ele>
        <time>2018-02-20T15:10:11.000Z</time>
      </trkpt>
      <trkpt lat="49.19753" lon="6.62815">
        <ele>206.34</ele>
        <time>2018-02-20T15:10:21.000Z</time>
      </trkpt>
      <trkpt lat="49.19752" lon="6.62829">
        <ele>200.02</ele>
        <time>2018-02-20T15:10:31.000Z</time>
      </trkpt>
      <trkpt lat="49.19754" lon="6.62854">
        <ele>192.99</ele>
        <time>2018-02-20T15:10:41.000Z</time>
      </trkpt>
      <trkpt lat="49.19757" lon="6.62894">
        <ele>216.72</ele>
        <time>2018-02-20T15:10:51.000Z</time>
      </trkpt>
      <trkpt lat="49.19761" lon="6.62915">
        <ele>219.2</ele>
        <time>2018-02-20T15:11:01.000Z</time>
      </trkpt>
      <trkpt lat="49.19763" lon="6.62937">
        <ele>223.21</ele>
        <time>2018-02-20T15:11:11.000Z</time>
      </trkpt>
      <trkpt lat="49.19771" lon="6.62948">
        <ele>215.28</ele>
        <time>2018-02-20T15:11:21.000Z</time>
      </trkpt>
      <trkpt lat="49.19775" lon="6.62972">
        <ele>216.38</ele>
        <time>2018-02-20T15:11:31.000Z</time>
      </trkpt>
      <trkpt lat="49.19776" lon="6.62995">
        <ele>216.32</ele>
        <time>2018-02-20T15:11:41.000Z</time>
      </trkpt>
      <trkpt lat="49.19774" lon="6.6301">
        <ele>204.92</ele>
        <time>2018-02-20T15:11:51.000Z</time>
      </trkpt>
      <trkpt lat="49.19773" lon="6.63017">
        <ele>195.47</ele>
        <time>2018-02-20T15:12:01.000Z</time>
      </trkpt>
      <trkpt lat="49.19766" lon="6.63037">
        <ele>192.08</ele>
        <time>2018-02-20T15:12:11.000Z</time>
      </trkpt>
      <trkpt lat="49.1976" lon="6.63053">
        <ele>188.22</ele>
        <time>2018-02-20T15:12:21.000Z</time>
      </trkpt>
      <trkpt lat="49.19754" lon="6.6307">
        <ele>186.81</ele>
        <time>2018-02-20T15:12:31.000Z</time>
      </trkpt>
      <trkpt lat="49.19751" lon="6.63086">
        <ele>185.51</ele>
        <time>2018-02-20T15:12:41.000Z</time>
      </trkpt>
      <trkpt lat="49.1975" lon="6.63105">
        <ele>182.94</ele>
        <time>2018-02-20T15:12:51.000Z</time>
      </trkpt>
      <trkpt lat="49.19749" lon="6.63128">
        <ele>177.49</ele>
        <time>2018-02-20T15:13:01.000Z</time>
      </trkpt>
      <trkpt lat="49.19751" lon="6.63151">
        <ele>182.78</ele>
        <time>2018-02-20T15:13:11.000Z</time>
      </trkpt>
      <trkpt lat="49.19757" lon="6.63189">
        <ele>200.82</ele>
        <time>2018-02-20T15:13:21.000Z</time>
      </trkpt>
      <trkpt lat="49.19765" lon="6.63208">
        <ele>205.42</ele>
        <time>2018-02-20T15:13:31.000Z</time>
      </trkpt>
      <trkpt lat="49.1977" lon="6.63223">
        <ele>206.42</ele>
        <time>2018-02-20T15:13:41.000Z</time>
      </trkpt>
      <trkpt lat="49.19784" lon="6.63231">
        <ele>201.34</ele>
        <time>2018-02-20T15:13:51.000Z</time>
      </trkpt>
      <trkpt lat="49.19797" lon="6.63238">
        <ele>201.12</ele>
        <time>2018-02-20T15:14:01.000Z</time>
      </trkpt>
      <trkpt lat="49.19815" lon="6.63247">
        <ele>198.12</ele>
        <time>2018-02-20T15:14:11.000Z</time>
      </trkpt>
      <trkpt lat="49.19817" lon="6.63262">
        <ele>190.73</ele>
        <time>2018-02-20T15:14:21.000Z</time>
      </trkpt>
      <trkpt lat="49.19818" lon="6.63284">
        <ele>187.67</ele>
        <time>2018-02-20T15:14:31.000Z</time>
      </trkpt>
      <trkpt lat="49.19827" lon="6.63301">
        <ele>184.08</ele>
        <time>2018-02-20T15:14:41.000Z</time>
      </trkpt>
      <trkpt lat="49.19834" lon="6.63329">
        <ele>186.64</ele>
        <time>2018-02-20T15:14:51.000Z</time>
      </trkpt>
      <trkpt lat="49.19836" lon="6.6335">
        <ele>187.83</ele>
        <time>2018-02-20T15:15:01.000Z</time>
      </trkpt>
      <trkpt lat="49.19834" lon="6.63383">
        <ele>191.64</ele>
        <time>2018-02-20T15:15:11.000Z</time>
      </trkpt>
      <trkpt lat="49.19833" lon="6.63397">
        <ele>190.81</ele>
        <time>2018-02-20T15:15:21.000Z</time>
      </trkpt>
      <trkpt lat="49.19832" lon="6.63418">
        <ele>182.27</ele>
        <time>2018-02-20T15:15:31.000Z</time>
      </trkpt>
      <trkpt lat="49.19827" lon="6.63442">
        <ele>177.81</ele>
        <time>2018-02-20T15:15:41.000Z</time>
      </trkpt>
      <trkpt lat="49.19824" lon="6.63457">
        <ele>183.48</ele>
        <time>2018-02-20T15:15:51.000Z</time>
      </trkpt>
      <trkpt lat="49.19819" lon="6.63481">
        <ele>184.24</ele>
        <time>2018-02-20T15:16:01.000Z</time>
      </trkpt>
      <trkpt lat="49.19813" lon="6.63506">
        <ele>181.35</ele>
        <time>2018-02-20T15:16:11.000Z</time>
      </trkpt>
      <trkpt lat="49.19807" lon="6.63527">
        <ele>184.43</ele>
        <time>2018-02-20T15:16:21.000Z</time>
      </trkpt>
      <trkpt lat="49.19805" lon="6.63542">
        <ele>187.97</ele>
        <time>2018-02-20T15:16:31.000Z</time>
      </trkpt>
      <trkpt lat="49.19804" lon="6.63564">
        <ele>192.84</ele>
        <time>2018-02-20T15:16:41.000Z</time>
      </trkpt>
      <trkpt lat="49.19805" lon="6.63586">
        <ele>191.7</ele>
        <time>2018-02-20T15:16:51.000Z</time>
      </trkpt>
      <trkpt lat="49.19804" lon="6.63614">
        <ele>188.26</ele>
        <time>2018-02-20T15:17:01.000Z</time>
      </trkpt>
      <trkpt lat="49.19797" lon="6.63639">
        <ele>194.77</ele>
        <time>2018-02-20T15:17:11.000Z</time>
      </trkpt>
      <trkpt lat="49.19793" lon="6.63645">
        <ele>193.51</ele>
        <time>2018-02-20T15:17:21.000Z</time>
      </trkpt>
      <trkpt lat="49.1979" lon="6.63648">
        <ele>190.28</ele>
        <time>2018-02-20T15:17:31.000Z</time>
      </trkpt>
      <trkpt lat="49.1979" lon="6.63646">
        <ele>187.88</ele>
        <time>2018-02-20T15:17:47.000Z</time>
      </trkpt>
      <trkpt lat="49.19787" lon="6.63647">
        <ele>185.81</ele>
        <time>2018-02-20T15:17:58.000Z</time>
      </trkpt>
      <trkpt lat="49.19776" lon="6.63649">
        <ele>181.44</ele>
        <time>2018-02-20T15:18:08.000Z</time>
      </trkpt>
      <trkpt lat="49.19767" lon="6.6366">
        <ele>181.9</ele>
        <time>2018-02-20T15:18:18.000Z</time>
      </trkpt>
      <trkpt lat="49.19758" lon="6.63671">
        <ele>181.98</ele>
        <time>2018-02-20T15:18:28.000Z</time>
      </trkpt>
      <trkpt lat="49.1975" lon="6.63683">
        <ele>183.61</ele>
        <time>2018-02-20T15:18:38.000Z</time>
      </trkpt>
      <trkpt lat="49.19746" lon="6.63697">
        <ele>184.42</ele>
        <time>2018-02-20T15:18:48.000Z</time>
      </trkpt>
      <trkpt lat="49.19742" lon="6.63714">
        <ele>184.58</ele>
        <time>2018-02-20T15:18:58.000Z</time>
      </trkpt>
      <trkpt lat="49.19737" lon="6.63735">
        <ele>184</ele>
        <time>2018-02-20T15:19:08.000Z</time>
      </trkpt>
      <trkpt lat="49.19736" lon="6.63755">
        <ele>183.57</ele>
        <time>2018-02-20T15:19:18.000Z</time>
      </trkpt>
      <trkpt lat="49.19735" lon="6.63775">
        <ele>173.89</ele>
        <time>2018-02-20T15:19:28.000Z</time>
      </trkpt>
      <trkpt lat="49.19729" lon="6.63798">
        <ele>172.76</ele>
        <time>2018-02-20T15:19:38.000Z</time>
      </trkpt>
      <trkpt lat="49.1973" lon="6.63825">
        <ele>173.89</ele>
        <time>2018-02-20T15:19:48.000Z</time>
      </trkpt>
      <trkpt lat="49.1973" lon="6.63845">
        <ele>174.86</ele>
        <time>2018-02-20T15:19:58.000Z</time>
      </trkpt>
      <trkpt lat="49.1973" lon="6.63866">
        <ele>173.8</ele>
        <time>2018-02-20T15:20:08.000Z</time>
      </trkpt>
      <trkpt lat="49.19729" lon="6.63884">
        <ele>169.02</ele>
        <time>2018-02-20T15:20:18.000Z</time>
      </trkpt>
      <trkpt lat="49.19735" lon="6.63918">
        <ele>184.29</ele>
        <time>2018-02-20T15:20:28.000Z</time>
      </trkpt>
      <trkpt lat="49.19738" lon="6.6394">
        <ele>184.38</ele>
        <time>2018-02-20T15:20:38.000Z</time>
      </trkpt>
      <trkpt lat="49.19742" lon="6.63959">
        <ele>176.31</ele>
        <time>2018-02-20T15:20:48.000Z</time>
      </trkpt>
      <trkpt lat="49.19745" lon="6.63981">
        <ele>179.08</ele>
        <time>2018-02-20T15:20:58.000Z</time>
      </trkpt>
      <trkpt lat="49.19749" lon="6.64004">
        <ele>183</ele>
        <time>2018-02-20T15:21:08.000Z</time>
      </trkpt>
      <trkpt lat="49.19755" lon="6.64023">
        <ele>184.34</ele>
        <time>2018-02-20T15:21:18.000Z</time>
      </trkpt>
      <trkpt lat="49.19758" lon="6.64043">
        <ele>193.81</ele>
        <time>2018-02-20T15:21:28.000Z</time>
      </trkpt>
      <trkpt lat="49.19763" lon="6.64063">
        <ele>193.35</ele>
        <time>2018-02-20T15:21:38.000Z</time>
      </trkpt>
      <trkpt lat="49.19766" lon="6.64082">
        <ele>188.69</ele>
        <time>2018-02-20T15:21:48.000Z</time>
      </trkpt>
      <trkpt lat="49.19774" lon="6.64105">
        <ele>190.18</ele>
        <time>2018-02-20T15:21:58.000Z</time>
      </trkpt>
      <trkpt lat="49.1978" lon="6.64129">
        <ele>195.88</ele>
        <time>2018-02-20T15:22:08.000Z</time>
      </trkpt>
      <trkpt lat="49.19783" lon="6.64145">
        <ele>197.59</ele>
        <time>2018-02-20T15:22:18.000Z</time>
      </trkpt>
      <trkpt lat="49.19787" lon="6.64171">
        <ele>207.66</ele>
        <time>2018-02-20T15:22:28.000Z</time>
      </trkpt>
      <trkpt lat="49.19795" lon="6.64193">
        <ele>210.9</ele>
        <time>2018-02-20T15:22:38.000Z</time>
      </trkpt>
      <trkpt lat="49.198" lon="6.6421">
        <ele>209.87</ele>
        <time>2018-02-20T15:22:48.000Z</time>
      </trkpt>
      <trkpt lat="49.19806" lon="6.64225">
        <ele>201.19</ele>
        <time>2018-02-20T15:22:58.000Z</time>
      </trkpt>
      <trkpt lat="49.19809" lon="6.64246">
        <ele>196.99</ele>
        <time>2018-02-20T15:23:08.000Z</time>
      </trkpt>
      <trkpt lat="49.19818" lon="6.64263">
        <ele>194.39</ele>
        <time>2018-02-20T15:23:18.000Z</time>
      </trkpt>
      <trkpt lat="49.19827" lon="6.64279">
        <ele>196.81</ele>
        <time>2018-02-20T15:23:28.000Z</time>
      </trkpt>
      <trkpt lat="49.19828" lon="6.64299">
        <ele>200.61</ele>
        <time>2018-02-20T15:23:38.000Z</time>
      </trkpt>
      <trkpt lat="49.19832" lon="6.64321">
        <ele>201.36</ele>
        <time>2018-02-20T15:23:48.000Z</time>
      </trkpt>
      <trkpt lat="49.19841" lon="6.64334">
        <ele>198.5</ele>
        <time>2018-02-20T15:23:58.000Z</time>
      </trkpt>
      <trkpt lat="49.19847" lon="6.64352">
        <ele>192.96</ele>
        <time>2018-02-20T15:24:08.000Z</time>
      </trkpt>
      <trkpt lat="49.19849" lon="6.64371">
        <ele>189.2</ele>
        <time>2018-02-20T15:24:18.000Z</time>
      </trkpt>
      <trkpt lat="49.19849" lon="6.64381">
        <ele>187.67</ele>
        <time>2018-02-20T15:24:28.000Z</time>
      </trkpt>
      <trkpt lat="49.19845" lon="6.64395">
        <ele>169.44</ele>
        <time>2018-02-20T15:24:51.000Z</time>
      </trkpt>
      <trkpt lat="49.19838" lon="6.64403">
        <ele>154.5</ele>
        <time>2018-02-20T15:25:01.000Z</time>
      </trkpt>
      <trkpt lat="49.19826" lon="6.64434">
        <ele>155.29</ele>
        <time>2018-02-20T15:25:11.000Z</time>
      </trkpt>
      <trkpt lat="49.19814" lon="6.64463">
        <ele>165.85</ele>
        <time>2018-02-20T15:25:21.000Z</time>
      </trkpt>
      <trkpt lat="49.19803" lon="6.64497">
        <ele>179.71</ele>
        <time>2018-02-20T15:25:31.000Z</time>
      </trkpt>
      <trkpt lat="49.19797" lon="6.64514">
        <ele>178.87</ele>
        <time>2018-02-20T15:25:41.000Z</time>
      </trkpt>
      <trkpt lat="49.19791" lon="6.64537">
        <ele>181.33</ele>
        <time>2018-02-20T15:25:51.000Z</time>
      </trkpt>
      <trkpt lat="49.19779" lon="6.64561">
        <ele>188.67</ele>
        <time>2018-02-20T15:26:01.000Z</time>
      </trkpt>
      <trkpt lat="49.19775" lon="6.64577">
        <ele>185.62</ele>
        <time>2018-02-20T15:26:11.000Z</time>
      </trkpt>
      <trkpt lat="49.19768" lon="6.64595">
        <ele>185.36</ele>
        <time>2018-02-20T15:26:21.000Z</time>
      </trkpt>
      <trkpt lat="49.1976" lon="6.64614">
        <ele>184.82</ele>
        <time>2018-02-20T15:26:31.000Z</time>
      </trkpt>
      <trkpt lat="49.19751" lon="6.64626">
        <ele>186.55</ele>
        <time>2018-02-20T15:26:41.000Z</time>
      </trkpt>
      <trkpt lat="49.19746" lon="6.64636">
        <ele>183.94</ele>
        <time>2018-02-20T15:26:52.000Z</time>
      </trkpt>
      <trkpt lat="49.19739" lon="6.64652">
        <ele>177.24</ele>
        <time>2018-02-20T15:27:02.000Z</time>
      </trkpt>
      <trkpt lat="49.19731" lon="6.64673">
        <ele>167.18</ele>
        <time>2018-02-20T15:27:12.000Z</time>
      </trkpt>
      <trkpt lat="49.19725" lon="6.64703">
        <ele>173.53</ele>
        <time>2018-02-20T15:27:22.000Z</time>
      </trkpt>
      <trkpt lat="49.19728" lon="6.64714">
        <ele>178.76</ele>
        <time>2018-02-20T15:27:32.000Z</time>
      </trkpt>
      <trkpt lat="49.19731" lon="6.64708">
        <ele>182.56</ele>
        <time>2018-02-20T15:27:42.000Z</time>
      </trkpt>
      <trkpt lat="49.19737" lon="6.64706">
        <ele>188.94</ele>
        <time>2018-02-20T15:28:13.000Z</time>
      </trkpt>
      <trkpt lat="49.19736" lon="6.64721">
        <ele>190.1</ele>
        <time>2018-02-20T15:28:23.000Z</time>
      </trkpt>
      <trkpt lat="49.19738" lon="6.64742">
        <ele>191.33</ele>
        <time>2018-02-20T15:28:33.000Z</time>
      </trkpt>
      <trkpt lat="49.19742" lon="6.64765">
        <ele>194.68</ele>
        <time>2018-02-20T15:28:43.000Z</time>
      </trkpt>
      <trkpt lat="49.19744" lon="6.64786">
        <ele>194.04</ele>
        <time>2018-02-20T15:28:53.000Z</time>
      </trkpt>
      <trkpt lat="49.19745" lon="6.64806">
        <ele>190.45</ele>
        <time>2018-02-20T15:29:03.000Z</time>
      </trkpt>
      <trkpt lat="49.19745" lon="6.64828">
        <ele>188.93</ele>
        <time>2018-02-20T15:29:13.000Z</time>
      </trkpt>
      <trkpt lat="49.19744" lon="6.64849">
        <ele>187.61</ele>
        <time>2018-02-20T15:29:23.000Z</time>
      </trkpt>
      <trkpt lat="49.19745" lon="6.64861">
        <ele>186.13</ele>
        <time>2018-02-20T15:29:33.000Z</time>
      </trkpt>
      <trkpt lat="49.19742" lon="6.64873">
        <ele>184.47</ele>
        <time>2018-02-20T15:29:43.000Z</time>
      </trkpt>
      <trkpt lat="49.19737" lon="6.64885">
        <ele>182.34</ele>
        <time>2018-02-20T15:29:53.000Z</time>
      </trkpt>
      <trkpt lat="49.19728" lon="6.64902">
        <ele>175</ele>
        <time>2018-02-20T15:30:03.000Z</time>
      </trkpt>
      <trkpt lat="49.19721" lon="6.6492">
        <ele>172.96</ele>
        <time>2018-02-20T15:30:13.000Z</time>
      </trkpt>
      <trkpt lat="49.19712" lon="6.64944">
        <ele>177.47</ele>
        <time>2018-02-20T15:30:23.000Z</time>
      </trkpt>
      <trkpt lat="49.19706" lon="6.64974">
        <ele>183.51</ele>
        <time>2018-02-20T15:30:33.000Z</time>
      </trkpt>
      <trkpt lat="49.19701" lon="6.64995">
        <ele>182.8</ele>
        <time>2018-02-20T15:30:43.000Z</time>
      </trkpt>
      <trkpt lat="49.19698" lon="6.6502">
        <ele>186.59</ele>
        <time>2018-02-20T15:30:53.000Z</time>
      </trkpt>
      <trkpt lat="49.19696" lon="6.65038">
        <ele>191.35</ele>
        <time>2018-02-20T15:31:03.000Z</time>
      </trkpt>
      <trkpt lat="49.19694" lon="6.65056">
        <ele>196.71</ele>
        <time>2018-02-20T15:31:13.000Z</time>
      </trkpt>
      <trkpt lat="49.19693" lon="6.6507">
        <ele>195.56</ele>
        <time>2018-02-20T15:31:23.000Z</time>
      </trkpt>
      <trkpt lat="49.19691" lon="6.65079">
        <ele>192.17</ele>
        <time>2018-02-20T15:31:33.000Z</time>
      </trkpt>
      <trkpt lat="49.19691" lon="6.65093">
        <ele>182.11</ele>
        <time>2018-02-20T15:31:53.000Z</time>
      </trkpt>
      <trkpt lat="49.1969" lon="6.65105">
        <ele>174.09</ele>
        <time>2018-02-20T15:32:03.000Z</time>
      </trkpt>
      <trkpt lat="49.19685" lon="6.65127">
        <ele>171.5</ele>
        <time>2018-02-20T15:32:13.000Z</time>
      </trkpt>
      <trkpt lat="49.19681" lon="6.65145">
        <ele>165.64</ele>
        <time>2018-02-20T15:32:23.000Z</time>
      </trkpt>
      <trkpt lat="49.19674" lon="6.65167">
        <ele>160.84</ele>
        <time>2018-02-20T15:32:33.000Z</time>
      </trkpt>
      <trkpt lat="49.19668" lon="6.65203">
        <ele>168.67</ele>
        <time>2018-02-20T15:32:43.000Z</time>
      </trkpt>
      <trkpt lat="49.19662" lon="6.65226">
        <ele>168.67</ele>
        <time>2018-02-20T15:32:53.000Z</time>
      </trkpt>
      <trkpt lat="49.19657" lon="6.65245">
        <ele>165.92</ele>
        <time>2018-02-20T15:33:03.000Z</time>
      </trkpt>
      <trkpt lat="49.19652" lon="6.65267">
        <ele>164.48</ele>
        <time>2018-02-20T15:33:13.000Z</time>
      </trkpt>
      <trkpt lat="49.1965" lon="6.65278">
        <ele>164.56</ele>
        <time>2018-02-20T15:33:23.000Z</time>
      </trkpt>
      <trkpt lat="49.19648" lon="6.65299">
        <ele>166.46</ele>
        <time>2018-02-20T15:33:33.000Z</time>
      </trkpt>
      <trkpt lat="49.19648" lon="6.65316">
        <ele>163.65</ele>
        <time>2018-02-20T15:33:43.000Z</time>
      </trkpt>
      <trkpt lat="49.19645" lon="6.65327">
        <ele>159.9</ele>
        <time>2018-02-20T15:33:53.000Z</time>
      </trkpt>
      <trkpt lat="49.19649" lon="6.65334">
        <ele>157.35</ele>
        <time>2018-02-20T15:34:03.000Z</time>
      </trkpt>
      <trkpt lat="49.19646" lon="6.65347">
        <ele>155.12</ele>
        <time>2018-02-20T15:34:13.000Z</time>
      </trkpt>
      <trkpt lat="49.1965" lon="6.6539">
        <ele>176.3</ele>
        <time>2018-02-20T15:34:23.000Z</time>
      </trkpt>
      <trkpt lat="49.19647" lon="6.65435">
        <ele>191.5</ele>
        <time>2018-02-20T15:34:33.000Z</time>
      </trkpt>
      <trkpt lat="49.19636" lon="6.65469">
        <ele>176.33</ele>
        <time>2018-02-20T15:34:43.000Z</time>
      </trkpt>
      <trkpt lat="49.19632" lon="6.65496">
        <ele>178.1</ele>
        <time>2018-02-20T15:34:53.000Z</time>
      </trkpt>
      <trkpt lat="49.19629" lon="6.65517">
        <ele>178.61</ele>
        <time>2018-02-20T15:35:03.000Z</time>
      </trkpt>
      <trkpt lat="49.19622" lon="6.65541">
        <ele>176.05</ele>
        <time>2018-02-20T15:35:13.000Z</time>
      </trkpt>
      <trkpt lat="49.19623" lon="6.65565">
        <ele>176.12</ele>
        <time>2018-02-20T15:35:23.000Z</time>
      </trkpt>
      <trkpt lat="49.19623" lon="6.65592">
        <ele>178.76</ele>
        <time>2018-02-20T15:35:33.000Z</time>
      </trkpt>
      <trkpt lat="49.1962" lon="6.65617">
        <ele>179.93</ele>
        <time>2018-02-20T15:35:43.000Z</time>
      </trkpt>
      <trkpt lat="49.19618" lon="6.65638">
        <ele>178.36</ele>
        <time>2018-02-20T15:35:53.000Z</time>
      </trkpt>
      <trkpt lat="49.19619" lon="6.65653">
        <ele>177.6</ele>
        <time>2018-02-20T15:36:03.000Z</time>
      </trkpt>
      <trkpt lat="49.19614" lon="6.65675">
        <ele>177.74</ele>
        <time>2018-02-20T15:36:13.000Z</time>
      </trkpt>
      <trkpt lat="49.1961" lon="6.65695">
        <ele>178.51</ele>
        <time>2018-02-20T15:36:23.000Z</time>
      </trkpt>
      <trkpt lat="49.19607" lon="6.65713">
        <ele>179.03</ele>
        <time>2018-02-20T15:36:33.000Z</time>
      </trkpt>
      <trkpt lat="49.19601" lon="6.65736">
        <ele>182.92</ele>
        <time>2018-02-20T15:36:43.000Z</time>
      </trkpt>
      <trkpt lat="49.19597" lon="6.65759">
        <ele>178.59</ele>
        <time>2018-02-20T15:36:53.000Z</time>
      </trkpt>
      <trkpt lat="49.19591" lon="6.65779">
        <ele>176.04</ele>
        <time>2018-02-20T15:37:03.000Z</time>
      </trkpt>
      <trkpt lat="49.19584" lon="6.65803">
        <ele>175.75</ele>
        <time>2018-02-20T15:37:13.000Z</time>
      </trkpt>
      <trkpt lat="49.19579" lon="6.65826">
        <ele>175.18</ele>
        <time>2018-02-20T15:37:23.000Z</time>
      </trkpt>
      <trkpt lat="49.19575" lon="6.65845">
        <ele>175.13</ele>
        <time>2018-02-20T15:37:33.000Z</time>
      </trkpt>
      <trkpt lat="49.1957" lon="6.65864">
        <ele>174.55</ele>
        <time>2018-02-20T15:37:43.000Z</time>
      </trkpt>
      <trkpt lat="49.19566" lon="6.65883">
        <ele>174.6</ele>
        <time>2018-02-20T15:37:53.000Z</time>
      </trkpt>
      <trkpt lat="49.19559" lon="6.65905">
        <ele>177.19</ele>
        <time>2018-02-20T15:38:03.000Z</time>
      </trkpt>
      <trkpt lat="49.19551" lon="6.65922">
        <ele>179.29</ele>
        <time>2018-02-20T15:38:13.000Z</time>
      </trkpt>
      <trkpt lat="49.19551" lon="6.65923">
        <ele>178.25</ele>
        <time>2018-02-20T15:38:23.000Z</time>
      </trkpt>
      <trkpt lat="49.19544" lon="6.65918">
        <ele>172.84</ele>
        <time>2018-02-20T15:38:33.000Z</time>
      </trkpt>
      <trkpt lat="49.19535" lon="6.65911">
        <ele>163.02</ele>
        <time>2018-02-20T15:38:43.000Z</time>
      </trkpt>
      <trkpt lat="49.19525" lon="6.65905">
        <ele>160.97</ele>
        <time>2018-02-20T15:38:53.000Z</time>
      </trkpt>
      <trkpt lat="49.19509" lon="6.65888">
        <ele>167.07</ele>
        <time>2018-02-20T15:39:03.000Z</time>
      </trkpt>
      <trkpt lat="49.19497" lon="6.65871">
        <ele>170.88</ele>
        <time>2018-02-20T15:39:13.000Z</time>
      </trkpt>
      <trkpt lat="49.19488" lon="6.65859">
        <ele>171.07</ele>
        <time>2018-02-20T15:39:23.000Z</time>
      </trkpt>
      <trkpt lat="49.19475" lon="6.65842">
        <ele>175.34</ele>
        <time>2018-02-20T15:39:33.000Z</time>
      </trkpt>
      <trkpt lat="49.19465" lon="6.65829">
        <ele>179.74</ele>
        <time>2018-02-20T15:39:43.000Z</time>
      </trkpt>
      <trkpt lat="49.19459" lon="6.65814">
        <ele>180.7</ele>
        <time>2018-02-20T15:39:53.000Z</time>
      </trkpt>
      <trkpt lat="49.19451" lon="6.658">
        <ele>180.96</ele>
        <time>2018-02-20T15:40:03.000Z</time>
      </trkpt>
      <trkpt lat="49.19443" lon="6.65785">
        <ele>178.93</ele>
        <time>2018-02-20T15:40:13.000Z</time>
      </trkpt>
      <trkpt lat="49.19434" lon="6.65767">
        <ele>176.22</ele>
        <time>2018-02-20T15:40:23.000Z</time>
      </trkpt>
      <trkpt lat="49.1942" lon="6.65749">
        <ele>179.11</ele>
        <time>2018-02-20T15:40:33.000Z</time>
      </trkpt>
      <trkpt lat="49.1941" lon="6.65741">
        <ele>179.6</ele>
        <time>2018-02-20T15:40:43.000Z</time>
      </trkpt>
      <trkpt lat="49.19393" lon="6.65723">
        <ele>191.2</ele>
        <time>2018-02-20T15:40:53.000Z</time>
      </trkpt>
      <trkpt lat="49.19382" lon="6.65709">
        <ele>188.42</ele>
        <time>2018-02-20T15:41:03.000Z</time>
      </trkpt>
      <trkpt lat="49.19372" lon="6.65701">
        <ele>188.03</ele>
        <time>2018-02-20T15:41:13.000Z</time>
      </trkpt>
      <trkpt lat="49.19364" lon="6.65693">
        <ele>186.18</ele>
        <time>2018-02-20T15:41:23.000Z</time>
      </trkpt>
      <trkpt lat="49.19358" lon="6.65677">
        <ele>178.54</ele>
        <time>2018-02-20T15:41:33.000Z</time>
      </trkpt>
      <trkpt lat="49.19344" lon="6.65662">
        <ele>177.93</ele>
        <time>2018-02-20T15:41:43.000Z</time>
      </trkpt>
      <trkpt lat="49.19325" lon="6.65676">
        <ele>182.83</ele>
        <time>2018-02-20T15:41:53.000Z</time>
      </trkpt>
      <trkpt lat="49.19312" lon="6.657">
        <ele>189.22</ele>
        <time>2018-02-20T15:42:03.000Z</time>
      </trkpt>
      <trkpt lat="49.19306" lon="6.65703">
        <ele>184.25</ele>
        <time>2018-02-20T15:42:13.000Z</time>
      </trkpt>
      <trkpt lat="49.19298" lon="6.657">
        <ele>177.48</ele>
        <time>2018-02-20T15:42:23.000Z</time>
      </trkpt>
      <trkpt lat="49.19291" lon="6.65697">
        <ele>170.37</ele>
        <time>2018-02-20T15:42:33.000Z</time>
      </trkpt>
      <trkpt lat="49.19282" lon="6.65706">
        <ele>169.98</ele>
        <time>2018-02-20T15:42:43.000Z</time>
      </trkpt>
      <trkpt lat="49.19275" lon="6.65708">
        <ele>161.88</ele>
        <time>2018-02-20T15:42:53.000Z</time>
      </trkpt>
      <trkpt lat="49.1926" lon="6.65707">
        <ele>153.07</ele>
        <time>2018-02-20T15:43:03.000Z</time>
      </trkpt>
      <trkpt lat="49.19239" lon="6.65713">
        <ele>164.02</ele>
        <time>2018-02-20T15:43:13.000Z</time>
      </trkpt>
      <trkpt lat="49.19226" lon="6.65711">
        <ele>165.76</ele>
        <time>2018-02-20T15:43:23.000Z</time>
      </trkpt>
      <trkpt lat="49.19212" lon="6.657">
        <ele>168.98</ele>
        <time>2018-02-20T15:43:33.000Z</time>
      </trkpt>
      <trkpt lat="49.192" lon="6.65696">
        <ele>168.01</ele>
        <time>2018-02-20T15:43:43.000Z</time>
      </trkpt>
      <trkpt lat="49.19189" lon="6.65693">
        <ele>164.73</ele>
        <time>2018-02-20T15:43:53.000Z</time>
      </trkpt>
      <trkpt lat="49.19174" lon="6.65704">
        <ele>167.25</ele>
        <time>2018-02-20T15:44:03.000Z</time>
      </trkpt>
      <trkpt lat="49.1916" lon="6.65711">
        <ele>168.77</ele>
        <time>2018-02-20T15:44:13.000Z</time>
      </trkpt>
      <trkpt lat="49.19145" lon="6.65711">
        <ele>166.94</ele>
        <time>2018-02-20T15:44:23.000Z</time>
      </trkpt>
      <trkpt lat="49.19131" lon="6.65711">
        <ele>166.19</ele>
        <time>2018-02-20T15:44:33.000Z</time>
      </trkpt>
      <trkpt lat="49.19116" lon="6.65707">
        <ele>163.07</ele>
        <time>2018-02-20T15:44:43.000Z</time>
      </trkpt>
      <trkpt lat="49.19103" lon="6.65701">
        <ele>164.34</ele>
        <time>2018-02-20T15:44:53.000Z</time>
      </trkpt>
      <trkpt lat="49.19089" lon="6.65701">
        <ele>164.88</ele>
        <time>2018-02-20T15:45:03.000Z</time>
      </trkpt>
      <trkpt lat="49.19076" lon="6.65694">
        <ele>164.26</ele>
        <time>2018-02-20T15:45:13.000Z</time>
      </trkpt>
      <trkpt lat="49.19066" lon="6.65689">
        <ele>156.91</ele>
        <time>2018-02-20T15:45:23.000Z</time>
      </trkpt>
      <trkpt lat="49.19056" lon="6.65687">
        <ele>146.71</ele>
        <time>2018-02-20T15:45:33.000Z</time>
      </trkpt>
      <trkpt lat="49.19043" lon="6.65683">
        <ele>144.21</ele>
        <time>2018-02-20T15:45:43.000Z</time>
      </trkpt>
      <trkpt lat="49.19041" lon="6.65683">
        <ele>144.05</ele>
        <time>2018-02-20T15:45:53.000Z</time>
      </trkpt>
      <trkpt lat="49.19023" lon="6.65693">
        <ele>146.7</ele>
        <time>2018-02-20T15:46:03.000Z</time>
      </trkpt>
      <trkpt lat="49.19012" lon="6.65699">
        <ele>145.86</ele>
        <time>2018-02-20T15:46:13.000Z</time>
      </trkpt>
      <trkpt lat="49.19008" lon="6.657">
        <ele>142.75</ele>
        <time>2018-02-20T15:46:23.000Z</time>
      </trkpt>
      <trkpt lat="49.19003" lon="6.6571">
        <ele>139.67</ele>
        <time>2018-02-20T15:46:38.000Z</time>
      </trkpt>
      <trkpt lat="49.18987" lon="6.6571">
        <ele>137.04</ele>
        <time>2018-02-20T15:46:48.000Z</time>
      </trkpt>
      <trkpt lat="49.18965" lon="6.65708">
        <ele>140.96</ele>
        <time>2018-02-20T15:46:58.000Z</time>
      </trkpt>
      <trkpt lat="49.18931" lon="6.65703">
        <ele>159.67</ele>
        <time>2018-02-20T15:47:08.000Z</time>
      </trkpt>
      <trkpt lat="49.18922" lon="6.65712">
        <ele>163.98</ele>
        <time>2018-02-20T15:47:18.000Z</time>
      </trkpt>
      <trkpt lat="49.18921" lon="6.65727">
        <ele>165.78</ele>
        <time>2018-02-20T15:47:28.000Z</time>
      </trkpt>
      <trkpt lat="49.18917" lon="6.65743">
        <ele>167.06</ele>
        <time>2018-02-20T15:47:38.000Z</time>
      </trkpt>
      <trkpt lat="49.18917" lon="6.65759">
        <ele>164.28</ele>
        <time>2018-02-20T15:47:48.000Z</time>
      </trkpt>
      <trkpt lat="49.18919" lon="6.65777">
        <ele>164.58</ele>
        <time>2018-02-20T15:47:58.000Z</time>
      </trkpt>
      <trkpt lat="49.18918" lon="6.658">
        <ele>163.66</ele>
        <time>2018-02-20T15:48:08.000Z</time>
      </trkpt>
      <trkpt lat="49.1892" lon="6.65817">
        <ele>158.39</ele>
        <time>2018-02-20T15:48:18.000Z</time>
      </trkpt>
      <trkpt lat="49.18921" lon="6.65837">
        <ele>155.91</ele>
        <time>2018-02-20T15:48:28.000Z</time>
      </trkpt>
      <trkpt lat="49.18923" lon="6.6586">
        <ele>157.78</ele>
        <time>2018-02-20T15:48:38.000Z</time>
      </trkpt>
      <trkpt lat="49.18923" lon="6.65879">
        <ele>157.55</ele>
        <time>2018-02-20T15:48:48.000Z</time>
      </trkpt>
      <trkpt lat="49.18919" lon="6.65908">
        <ele>159.46</ele>
        <time>2018-02-20T15:48:58.000Z</time>
      </trkpt>
      <trkpt lat="49.1891" lon="6.65934">
        <ele>164.29</ele>
        <time>2018-02-20T15:49:08.000Z</time>
      </trkpt>
      <trkpt lat="49.18899" lon="6.65957">
        <ele>167.36</ele>
        <time>2018-02-20T15:49:18.000Z</time>
      </trkpt>
      <trkpt lat="49.18886" lon="6.6597">
        <ele>167.73</ele>
        <time>2018-02-20T15:49:28.000Z</time>
      </trkpt>
      <trkpt lat="49.18872" lon="6.65974">
        <ele>169.16</ele>
        <time>2018-02-20T15:49:38.000Z</time>
      </trkpt>
      <trkpt lat="49.18861" lon="6.65982">
        <ele>165.97</ele>
        <time>2018-02-20T15:49:48.000Z</time>
      </trkpt>
      <trkpt lat="49.18846" lon="6.65988">
        <ele>164.95</ele>
        <time>2018-02-20T15:49:58.000Z</time>
      </trkpt>
      <trkpt lat="49.18833" lon="6.65993">
        <ele>167.44</ele>
        <time>2018-02-20T15:50:08.000Z</time>
      </trkpt>
      <trkpt lat="49.18821" lon="6.66002">
        <ele>167.02</ele>
        <time>2018-02-20T15:50:18.000Z</time>
      </trkpt>
      <trkpt lat="49.18807" lon="6.66009">
        <ele>167.43</ele>
        <time>2018-02-20T15:50:28.000Z</time>
      </trkpt>
      <trkpt lat="49.18794" lon="6.66015">
        <ele>164.58</ele>
        <time>2018-02-20T15:50:38.000Z</time>
      </trkpt>
      <trkpt lat="49.18781" lon="6.66022">
        <ele>165.61</ele>
        <time>2018-02-20T15:50:48.000Z</time>
      </trkpt>
      <trkpt lat="49.18771" lon="6.66031">
        <ele>161.43</ele>
        <time>2018-02-20T15:50:58.000Z</time>
      </trkpt>
      <trkpt lat="49.18759" lon="6.66041">
        <ele>161.93</ele>
        <time>2018-02-20T15:51:08.000Z</time>
      </trkpt>
      <trkpt lat="49.18748" lon="6.66047">
        <ele>160.91</ele>
        <time>2018-02-20T15:51:18.000Z</time>
      </trkpt>
      <trkpt lat="49.18733" lon="6.66055">
        <ele>164.18</ele>
        <time>2018-02-20T15:51:28.000Z</time>
      </trkpt>
      <trkpt lat="49.18719" lon="6.66061">
        <ele>165.98</ele>
        <time>2018-02-20T15:51:38.000Z</time>
      </trkpt>
      <trkpt lat="49.18707" lon="6.66069">
        <ele>163.53</ele>
        <time>2018-02-20T15:51:48.000Z</time>
      </trkpt>
      <trkpt lat="49.18694" lon="6.66074">
        <ele>163.92</ele>
        <time>2018-02-20T15:51:58.000Z</time>
      </trkpt>
      <trkpt lat="49.18682" lon="6.66079">
        <ele>161.08</ele>
        <time>2018-02-20T15:52:08.000Z</time>
      </trkpt>
      <trkpt lat="49.18669" lon="6.66086">
        <ele>159.87</ele>
        <time>2018-02-20T15:52:18.000Z</time>
      </trkpt>
      <trkpt lat="49.1866" lon="6.66092">
        <ele>154.76</ele>
        <time>2018-02-20T15:52:28.000Z</time>
      </trkpt>
      <trkpt lat="49.18646" lon="6.66097">
        <ele>155.38</ele>
        <time>2018-02-20T15:52:38.000Z</time>
      </trkpt>
      <trkpt lat="49.18633" lon="6.66096">
        <ele>157.44</ele>
        <time>2018-02-20T15:52:48.000Z</time>
      </trkpt>
      <trkpt lat="49.18617" lon="6.66105">
        <ele>160.66</ele>
        <time>2018-02-20T15:52:58.000Z</time>
      </trkpt>
      <trkpt lat="49.18604" lon="6.66111">
        <ele>161.25</ele>
        <time>2018-02-20T15:53:08.000Z</time>
      </trkpt>
      <trkpt lat="49.18591" lon="6.66117">
        <ele>161.08</ele>
        <time>2018-02-20T15:53:18.000Z</time>
      </trkpt>
      <trkpt lat="49.1858" lon="6.66123">
        <ele>160.02</ele>
        <time>2018-02-20T15:53:28.000Z</time>
      </trkpt>
      <trkpt lat="49.1857" lon="6.66123">
        <ele>153.5</ele>
        <time>2018-02-20T15:53:38.000Z</time>
      </trkpt>
      <trkpt lat="49.18557" lon="6.66129">
        <ele>152.88</ele>
        <time>2018-02-20T15:53:48.000Z</time>
      </trkpt>
      <trkpt lat="49.18549" lon="6.66136">
        <ele>150.69</ele>
        <time>2018-02-20T15:53:58.000Z</time>
      </trkpt>
      <trkpt lat="49.18547" lon="6.66146">
        <ele>148.74</ele>
        <time>2018-02-20T15:54:08.000Z</time>
      </trkpt>
      <trkpt lat="49.18544" lon="6.66148">
        <ele>146.37</ele>
        <time>2018-02-20T15:54:18.000Z</time>
      </trkpt>
      <trkpt lat="49.18529" lon="6.6616">
        <ele>145.55</ele>
        <time>2018-02-20T15:54:28.000Z</time>
      </trkpt>
      <trkpt lat="49.18512" lon="6.66162">
        <ele>148.73</ele>
        <time>2018-02-20T15:54:38.000Z</time>
      </trkpt>
      <trkpt lat="49.18501" lon="6.66158">
        <ele>147.88</ele>
        <time>2018-02-20T15:54:48.000Z</time>
      </trkpt>
      <trkpt lat="49.18492" lon="6.66156">
        <ele>144.74</ele>
        <time>2018-02-20T15:54:58.000Z</time>
      </trkpt>
      <trkpt lat="49.1848" lon="6.66147">
        <ele>143.59</ele>
        <time>2018-02-20T15:55:08.000Z</time>
      </trkpt>
      <trkpt lat="49.18467" lon="6.66137">
        <ele>144.8</ele>
        <time>2018-02-20T15:55:18.000Z</time>
      </trkpt>
      <trkpt lat="49.18455" lon="6.6613">
        <ele>145.36</ele>
        <time>2018-02-20T15:55:28.000Z</time>
      </trkpt>
      <trkpt lat="49.18442" lon="6.6612">
        <ele>147.6</ele>
        <time>2018-02-20T15:55:38.000Z</time>
      </trkpt>
      <trkpt lat="49.1843" lon="6.66114">
        <ele>147.92</ele>
        <time>2018-02-20T15:55:48.000Z</time>
      </trkpt>
      <trkpt lat="49.18416" lon="6.66105">
        <ele>150.19</ele>
        <time>2018-02-20T15:55:58.000Z</time>
      </trkpt>
      <trkpt lat="49.18404" lon="6.66094">
        <ele>152.47</ele>
        <time>2018-02-20T15:56:08.000Z</time>
      </trkpt>
      <trkpt lat="49.18392" lon="6.66084">
        <ele>150.5</ele>
        <time>2018-02-20T15:56:18.000Z</time>
      </trkpt>
      <trkpt lat="49.18379" lon="6.66082">
        <ele>155.18</ele>
        <time>2018-02-20T15:56:28.000Z</time>
      </trkpt>
      <trkpt lat="49.18369" lon="6.66085">
        <ele>155.5</ele>
        <time>2018-02-20T15:56:38.000Z</time>
      </trkpt>
      <trkpt lat="49.18357" lon="6.66083">
        <ele>156.18</ele>
        <time>2018-02-20T15:56:48.000Z</time>
      </trkpt>
      <trkpt lat="49.18345" lon="6.66082">
        <ele>155.19</ele>
        <time>2018-02-20T15:56:58.000Z</time>
      </trkpt>
      <trkpt lat="49.18331" lon="6.66083">
        <ele>155.26</ele>
        <time>2018-02-20T15:57:08.000Z</time>
      </trkpt>
      <trkpt lat="49.18321" lon="6.66084">
        <ele>151.16</ele>
        <time>2018-02-20T15:57:18.000Z</time>
      </trkpt>
      <trkpt lat="49.1831" lon="6.66082">
        <ele>149.92</ele>
        <time>2018-02-20T15:57:28.000Z</time>
      </trkpt>
      <trkpt lat="49.18297" lon="6.66079">
        <ele>151.69</ele>
        <time>2018-02-20T15:57:38.000Z</time>
      </trkpt>
      <trkpt lat="49.18288" lon="6.6608">
        <ele>148.21</ele>
        <time>2018-02-20T15:57:48.000Z</time>
      </trkpt>
      <trkpt lat="49.18281" lon="6.66073">
        <ele>145.74</ele>
        <time>2018-02-20T15:57:58.000Z</time>
      </trkpt>
      <trkpt lat="49.18263" lon="6.66063">
        <ele>148.66</ele>
        <time>2018-02-20T15:58:08.000Z</time>
      </trkpt>
      <trkpt lat="49.18245" lon="6.6606">
        <ele>156.92</ele>
        <time>2018-02-20T15:58:18.000Z</time>
      </trkpt>
      <trkpt lat="49.18242" lon="6.6607">
        <ele>161.1</ele>
        <time>2018-02-20T15:58:28.000Z</time>
      </trkpt>
      <trkpt lat="49.18243" lon="6.66086">
        <ele>158.44</ele>
        <time>2018-02-20T15:58:38.000Z</time>
      </trkpt>
      <trkpt lat="49.18234" lon="6.66104">
        <ele>152.04</ele>
        <time>2018-02-20T15:58:48.000Z</time>
      </trkpt>
      <trkpt lat="49.18224" lon="6.66117">
        <ele>148.39</ele>
        <time>2018-02-20T15:58:58.000Z</time>
      </trkpt>
      <trkpt lat="49.18216" lon="6.66126">
        <ele>145.34</ele>
        <time>2018-02-20T15:59:08.000Z</time>
      </trkpt>
      <trkpt lat="49.18206" lon="6.66134">
        <ele>144.13</ele>
        <time>2018-02-20T15:59:18.000Z</time>
      </trkpt>
      <trkpt lat="49.18192" lon="6.66144">
        <ele>146.41</ele>
        <time>2018-02-20T15:59:28.000Z</time>
      </trkpt>
      <trkpt lat="49.18183" lon="6.66158">
        <ele>147.19</ele>
        <time>2018-02-20T15:59:38.000Z</time>
      </trkpt>
      <trkpt lat="49.18168" lon="6.6617">
        <ele>148.92</ele>
        <time>2018-02-20T15:59:48.000Z</time>
      </trkpt>
      <trkpt lat="49.18156" lon="6.66182">
        <ele>151.24</ele>
        <time>2018-02-20T15:59:58.000Z</time>
      </trkpt>
      <trkpt lat="49.18142" lon="6.66196">
        <ele>155.21</ele>
        <time>2018-02-20T16:00:08.000Z</time>
      </trkpt>
      <trkpt lat="49.18128" lon="6.66205">
        <ele>155.8</ele>
        <time>2018-02-20T16:00:18.000Z</time>
      </trkpt>
      <trkpt lat="49.18113" lon="6.66212">
        <ele>156.69</ele>
        <time>2018-02-20T16:00:28.000Z</time>
      </trkpt>
      <trkpt lat="49.18099" lon="6.66219">
        <ele>155.8</ele>
        <time>2018-02-20T16:00:38.000Z</time>
      </trkpt>
      <trkpt lat="49.18087" lon="6.66223">
        <ele>158.72</ele>
        <time>2018-02-20T16:00:48.000Z</time>
      </trkpt>
      <trkpt lat="49.18083" lon="6.6623">
        <ele>158.64</ele>
        <time>2018-02-20T16:00:58.000Z</time>
      </trkpt>
      <trkpt lat="49.18081" lon="6.66235">
        <ele>154.85</ele>
        <time>2018-02-20T16:01:08.000Z</time>
      </trkpt>
      <trkpt lat="49.1808" lon="6.66238">
        <ele>153.79</ele>
        <time>2018-02-20T16:01:21.000Z</time>
      </trkpt>
      <trkpt lat="49.18078" lon="6.66247">
        <ele>152.92</ele>
        <time>2018-02-20T16:01:31.000Z</time>
      </trkpt>
      <trkpt lat="49.18073" lon="6.66257">
        <ele>153.35</ele>
        <time>2018-02-20T16:01:41.000Z</time>
      </trkpt>
      <trkpt lat="49.1807" lon="6.66267">
        <ele>156.23</ele>
        <time>2018-02-20T16:01:51.000Z</time>
      </trkpt>
      <trkpt lat="49.18057" lon="6.66279">
        <ele>158.81</ele>
        <time>2018-02-20T16:02:01.000Z</time>
      </trkpt>
      <trkpt lat="49.18037" lon="6.66284">
        <ele>147.73</ele>
        <time>2018-02-20T16:02:11.000Z</time>
      </trkpt>
      <trkpt lat="49.18025" lon="6.66299">
        <ele>145.96</ele>
        <time>2018-02-20T16:02:21.000Z</time>
      </trkpt>
      <trkpt lat="49.18007" lon="6.66326">
        <ele>156.36</ele>
        <time>2018-02-20T16:02:31.000Z</time>
      </trkpt>
      <trkpt lat="49.18001" lon="6.6634">
        <ele>158.39</ele>
        <time>2018-02-20T16:02:41.000Z</time>
      </trkpt>
      <trkpt lat="49.17992" lon="6.66355">
        <ele>159.63</ele>
        <time>2018-02-20T16:02:51.000Z</time>
      </trkpt>
      <trkpt lat="49.17981" lon="6.66371">
        <ele>164</ele>
        <time>2018-02-20T16:03:01.000Z</time>
      </trkpt>
      <trkpt lat="49.17972" lon="6.66385">
        <ele>164.32</ele>
        <time>2018-02-20T16:03:11.000Z</time>
      </trkpt>
      <trkpt lat="49.1796" lon="6.66401">
        <ele>162.57</ele>
        <time>2018-02-20T16:03:21.000Z</time>
      </trkpt>
      <trkpt lat="49.17954" lon="6.66411">
        <ele>158.8</ele>
        <time>2018-02-20T16:03:31.000Z</time>
      </trkpt>
      <trkpt lat="49.17942" lon="6.66426">
        <ele>156.93</ele>
        <time>2018-02-20T16:03:41.000Z</time>
      </trkpt>
      <trkpt lat="49.17931" lon="6.66447">
        <ele>159.22</ele>
        <time>2018-02-20T16:03:51.000Z</time>
      </trkpt>
      <trkpt lat="49.17921" lon="6.66465">
        <ele>159.83</ele>
        <time>2018-02-20T16:04:01.000Z</time>
      </trkpt>
      <trkpt lat="49.17911" lon="6.66485">
        <ele>162.64</ele>
        <time>2018-02-20T16:04:11.000Z</time>
      </trkpt>
      <trkpt lat="49.17903" lon="6.66501">
        <ele>165.62</ele>
        <time>2018-02-20T16:04:21.000Z</time>
      </trkpt>
      <trkpt lat="49.17895" lon="6.66515">
        <ele>163.24</ele>
        <time>2018-02-20T16:04:31.000Z</time>
      </trkpt>
      <trkpt lat="49.17884" lon="6.66534">
        <ele>164.47</ele>
        <time>2018-02-20T16:04:41.000Z</time>
      </trkpt>
      <trkpt lat="49.17874" lon="6.66548">
        <ele>165.37</ele>
        <time>2018-02-20T16:04:51.000Z</time>
      </trkpt>
      <trkpt lat="49.17863" lon="6.66566">
        <ele>166.8</ele>
        <time>2018-02-20T16:05:01.000Z</time>
      </trkpt>
      <trkpt lat="49.17855" lon="6.66583">
        <ele>167.59</ele>
        <time>2018-02-20T16:05:11.000Z</time>
      </trkpt>
      <trkpt lat="49.17847" lon="6.66599">
        <ele>167.18</ele>
        <time>2018-02-20T16:05:21.000Z</time>
      </trkpt>
      <trkpt lat="49.17839" lon="6.66615">
        <ele>166.1</ele>
        <time>2018-02-20T16:05:31.000Z</time>
      </trkpt>
      <trkpt lat="49.1783" lon="6.66632">
        <ele>165.1</ele>
        <time>2018-02-20T16:05:41.000Z</time>
      </trkpt>
      <trkpt lat="49.17821" lon="6.66647">
        <ele>163.95</ele>
        <time>2018-02-20T16:05:51.000Z</time>
      </trkpt>
      <trkpt lat="49.17813" lon="6.66663">
        <ele>164.72</ele>
        <time>2018-02-20T16:06:01.000Z</time>
      </trkpt>
      <trkpt lat="49.17804" lon="6.66678">
        <ele>166.41</ele>
        <time>2018-02-20T16:06:11.000Z</time>
      </trkpt>
      <trkpt lat="49.17798" lon="6.6669">
        <ele>166.63</ele>
        <time>2018-02-20T16:06:21.000Z</time>
      </trkpt>
      <trkpt lat="49.17791" lon="6.66704">
        <ele>167.41</ele>
        <time>2018-02-20T16:06:31.000Z</time>
      </trkpt>
      <trkpt lat="49.17782" lon="6.66721">
        <ele>168.05</ele>
        <time>2018-02-20T16:06:41.000Z</time>
      </trkpt>
      <trkpt lat="49.17774" lon="6.66737">
        <ele>167.78</ele>
        <time>2018-02-20T16:06:51.000Z</time>
      </trkpt>
      <trkpt lat="49.17765" lon="6.66752">
        <ele>169.36</ele>
        <time>2018-02-20T16:07:01.000Z</time>
      </trkpt>
      <trkpt lat="49.17755" lon="6.66766">
        <ele>172.21</ele>
        <time>2018-02-20T16:07:11.000Z</time>
      </trkpt>
      <trkpt lat="49.17746" lon="6.66782">
        <ele>173.29</ele>
        <time>2018-02-20T16:07:21.000Z</time>
      </trkpt>
      <trkpt lat="49.17735" lon="6.66796">
        <ele>169.32</ele>
        <time>2018-02-20T16:07:31.000Z</time>
      </trkpt>
      <trkpt lat="49.17727" lon="6.66812">
        <ele>169.3</ele>
        <time>2018-02-20T16:07:41.000Z</time>
      </trkpt>
      <trkpt lat="49.17718" lon="6.66829">
        <ele>170.95</ele>
        <time>2018-02-20T16:07:51.000Z</time>
      </trkpt>
      <trkpt lat="49.17709" lon="6.66846">
        <ele>172.83</ele>
        <time>2018-02-20T16:08:01.000Z</time>
      </trkpt>
      <trkpt lat="49.17701" lon="6.66863">
        <ele>172.42</ele>
        <time>2018-02-20T16:08:11.000Z</time>
      </trkpt>
      <trkpt lat="49.17694" lon="6.66879">
        <ele>170.66</ele>
        <time>2018-02-20T16:08:21.000Z</time>
      </trkpt>
      <trkpt lat="49.17686" lon="6.66893">
        <ele>170.82</ele>
        <time>2018-02-20T16:08:31.000Z</time>
      </trkpt>
      <trkpt lat="49.17678" lon="6.66907">
        <ele>169.59</ele>
        <time>2018-02-20T16:08:41.000Z</time>
      </trkpt>
      <trkpt lat="49.17669" lon="6.66926">
        <ele>173.32</ele>
        <time>2018-02-20T16:08:51.000Z</time>
      </trkpt>
      <trkpt lat="49.1766" lon="6.66939">
        <ele>172.23</ele>
        <time>2018-02-20T16:09:01.000Z</time>
      </trkpt>
      <trkpt lat="49.17648" lon="6.6695">
        <ele>172.22</ele>
        <time>2018-02-20T16:09:11.000Z</time>
      </trkpt>
      <trkpt lat="49.17637" lon="6.66963">
        <ele>172.2</ele>
        <time>2018-02-20T16:09:21.000Z</time>
      </trkpt>
      <trkpt lat="49.17632" lon="6.66976">
        <ele>172.57</ele>
        <time>2018-02-20T16:09:31.000Z</time>
      </trkpt>
      <trkpt lat="49.17628" lon="6.66994">
        <ele>173.8</ele>
        <time>2018-02-20T16:09:41.000Z</time>
      </trkpt>
      <trkpt lat="49.17625" lon="6.67008">
        <ele>171.53</ele>
        <time>2018-02-20T16:09:51.000Z</time>
      </trkpt>
      <trkpt lat="49.17615" lon="6.67023">
        <ele>173.83</ele>
        <time>2018-02-20T16:10:01.000Z</time>
      </trkpt>
      <trkpt lat="49.17607" lon="6.6705">
        <ele>182.7</ele>
        <time>2018-02-20T16:10:11.000Z</time>
      </trkpt>
      <trkpt lat="49.17598" lon="6.67067">
        <ele>182.47</ele>
        <time>2018-02-20T16:10:21.000Z</time>
      </trkpt>
      <trkpt lat="49.1759" lon="6.67083">
        <ele>183.43</ele>
        <time>2018-02-20T16:10:31.000Z</time>
      </trkpt>
      <trkpt lat="49.17584" lon="6.671">
        <ele>183.36</ele>
        <time>2018-02-20T16:10:41.000Z</time>
      </trkpt>
      <trkpt lat="49.17585" lon="6.67113">
        <ele>181.76</ele>
        <time>2018-02-20T16:10:51.000Z</time>
      </trkpt>
      <trkpt lat="49.17593" lon="6.67122">
        <ele>177.4</ele>
        <time>2018-02-20T16:11:01.000Z</time>
      </trkpt>
      <trkpt lat="49.17596" lon="6.67137">
        <ele>177.84</ele>
        <time>2018-02-20T16:11:11.000Z</time>
      </trkpt>
      <trkpt lat="49.17599" lon="6.6715">
        <ele>175.32</ele>
        <time>2018-02-20T16:11:21.000Z</time>
      </trkpt>
      <trkpt lat="49.17609" lon="6.67162">
        <ele>173.28</ele>
        <time>2018-02-20T16:11:31.000Z</time>
      </trkpt>
      <trkpt lat="49.1762" lon="6.67175">
        <ele>172.4</ele>
        <time>2018-02-20T16:11:41.000Z</time>
      </trkpt>
      <trkpt lat="49.17629" lon="6.67184">
        <ele>169.16</ele>
        <time>2018-02-20T16:11:51.000Z</time>
      </trkpt>
      <trkpt lat="49.17639" lon="6.67197">
        <ele>167.35</ele>
        <time>2018-02-20T16:12:01.000Z</time>
      </trkpt>
      <trkpt lat="49.17649" lon="6.67209">
        <ele>166.8</ele>
        <time>2018-02-20T16:12:11.000Z</time>
      </trkpt>
      <trkpt lat="49.17659" lon="6.67223">
        <ele>165.53</ele>
        <time>2018-02-20T16:12:21.000Z</time>
      </trkpt>
      <trkpt lat="49.1767" lon="6.67238">
        <ele>167.01</ele>
        <time>2018-02-20T16:12:31.000Z</time>
      </trkpt>
      <trkpt lat="49.1768" lon="6.67249">
        <ele>164.75</ele>
        <time>2018-02-20T16:12:41.000Z</time>
      </trkpt>
      <trkpt lat="49.17691" lon="6.67266">
        <ele>164.93</ele>
        <time>2018-02-20T16:12:51.000Z</time>
      </trkpt>
      <trkpt lat="49.17702" lon="6.67285">
        <ele>168.94</ele>
        <time>2018-02-20T16:13:01.000Z</time>
      </trkpt>
      <trkpt lat="49.17708" lon="6.67298">
        <ele>166.94</ele>
        <time>2018-02-20T16:13:11.000Z</time>
      </trkpt>
      <trkpt lat="49.17718" lon="6.67312">
        <ele>166.74</ele>
        <time>2018-02-20T16:13:21.000Z</time>
      </trkpt>
      <trkpt lat="49.17722" lon="6.67324">
        <ele>161.68</ele>
        <time>2018-02-20T16:13:31.000Z</time>
      </trkpt>
      <trkpt lat="49.17726" lon="6.67342">
        <ele>157.66</ele>
        <time>2018-02-20T16:13:41.000Z</time>
      </trkpt>
      <trkpt lat="49.17726" lon="6.67363">
        <ele>157.14</ele>
        <time>2018-02-20T16:13:51.000Z</time>
      </trkpt>
      <trkpt lat="49.17729" lon="6.67385">
        <ele>158.93</ele>
        <time>2018-02-20T16:14:01.000Z</time>
      </trkpt>
      <trkpt lat="49.17732" lon="6.67403">
        <ele>156.34</ele>
        <time>2018-02-20T16:14:11.000Z</time>
      </trkpt>
      <trkpt lat="49.17732" lon="6.67424">
        <ele>153.43</ele>
        <time>2018-02-20T16:14:21.000Z</time>
      </trkpt>
      <trkpt lat="49.17733" lon="6.67442">
        <ele>152.37</ele>
        <time>2018-02-20T16:14:31.000Z</time>
      </trkpt>
      <trkpt lat="49.17743" lon="6.67485">
        <ele>179.05</ele>
        <time>2018-02-20T16:14:41.000Z</time>
      </trkpt>
      <trkpt lat="49.17744" lon="6.67506">
        <ele>180.78</ele>
        <time>2018-02-20T16:14:51.000Z</time>
      </trkpt>
      <trkpt lat="49.17746" lon="6.67532">
        <ele>186.37</ele>
        <time>2018-02-20T16:15:01.000Z</time>
      </trkpt>
      <trkpt lat="49.17744" lon="6.67554">
        <ele>182.46</ele>
        <time>2018-02-20T16:15:11.000Z</time>
      </trkpt>
      <trkpt lat="49.17738" lon="6.67569">
        <ele>179.93</ele>
        <time>2018-02-20T16:15:21.000Z</time>
      </trkpt>
      <trkpt lat="49.17735" lon="6.67574">
        <ele>178.33</ele>
        <time>2018-02-20T16:15:28.000Z</time>
      </trkpt>
    </trkseg>
  </trk>
</gpx>